Wetterdaten: Mittwoch, 24.06.2015
Datum Zeit Temp. Aussen +5cm Feuchte Auss BlattFeu 1 Luftdruck Regen Sonnenschein Regendauer Solar Windben
24.06.2015 00:00 11,8 C 10,6 C 93 % 4 lf 1018,8 hPa 0,0 l/m 0 min 0 min 0 W/m 10,5 km/h (2 Bft)
24.06.2015 00:03 11,8 C 10,6 C 93 % 3 lf 1018,9 hPa 0,0 l/m 0 min 0 min 0 W/m 10,5 km/h (2 Bft)
24.06.2015 00:05 11,8 C 10,6 C 93 % 3 lf 1018,9 hPa 0,0 l/m 0 min 0 min 0 W/m 10,5 km/h (2 Bft)
24.06.2015 00:06 11,8 C 10,6 C 93 % 2 lf 1018,9 hPa 0,0 l/m 0 min 0 min 0 W/m 4,2 km/h (1 Bft)
24.06.2015 00:08 11,8 C 10,6 C 93 % 2 lf 1018,9 hPa 0,0 l/m 0 min 0 min 0 W/m 10,5 km/h (2 Bft)
24.06.2015 00:10 11,8 C 10,6 C 93 % 1 lf 1018,9 hPa 0,0 l/m 0 min 0 min 0 W/m 8,4 km/h (2 Bft)
24.06.2015 00:12 11,8 C 10,6 C 93 % 0 lf 1018,9 hPa 0,0 l/m 0 min 0 min 0 W/m 12,6 km/h (3 Bft)
24.06.2015 00:14 11,8 C 10,6 C 93 % 1 lf 1019,0 hPa 0,0 l/m 0 min 0 min 0 W/m 8,4 km/h (2 Bft)
24.06.2015 00:16 11,8 C 10,6 C 93 % 0 lf 1018,9 hPa 0,0 l/m 0 min 0 min 0 W/m 18,8 km/h (3 Bft)
24.06.2015 00:18 11,8 C 10,6 C 93 % 0 lf 1019,0 hPa 0,0 l/m 0 min 0 min 0 W/m 12,6 km/h (3 Bft)
24.06.2015 00:20 11,8 C 10,6 C 93 % 0 lf 1018,9 hPa 0,0 l/m 0 min 0 min 0 W/m 10,5 km/h (2 Bft)
24.06.2015 00:22 11,8 C 10,6 C 93 % 0 lf 1018,9 hPa 0,0 l/m 0 min 0 min 0 W/m 8,4 km/h (2 Bft)
24.06.2015 00:24 11,8 C 10,6 C 93 % 0 lf 1019,0 hPa 0,0 l/m 0 min 0 min 0 W/m 10,5 km/h (2 Bft)
24.06.2015 00:26 11,8 C 10,6 C 93 % 0 lf 1018,9 hPa 0,0 l/m 0 min 0 min 0 W/m 10,5 km/h (2 Bft)
24.06.2015 00:28 11,8 C 10,6 C 93 % 0 lf 1019,0 hPa 0,0 l/m 0 min 0 min 0 W/m 8,4 km/h (2 Bft)
24.06.2015 00:30 11,8 C 10,6 C 93 % 0 lf 1019,0 hPa 0,0 l/m 0 min 0 min 0 W/m 12,6 km/h (3 Bft)
24.06.2015 00:32 11,8 C 10,6 C 93 % 0 lf 1018,9 hPa 0,0 l/m 0 min 0 min 0 W/m 12,6 km/h (3 Bft)
24.06.2015 00:34 11,8 C 10,6 C 93 % 0 lf 1018,9 hPa 0,0 l/m 0 min 0 min 0 W/m 8,4 km/h (2 Bft)
24.06.2015 00:36 11,8 C 10,6 C 93 % 0 lf 1019,0 hPa 0,0 l/m 0 min 0 min 0 W/m 8,4 km/h (2 Bft)
24.06.2015 00:38 11,8 C 10,6 C 93 % 0 lf 1019,0 hPa 0,0 l/m 0 min 0 min 0 W/m 8,4 km/h (2 Bft)
24.06.2015 00:40 11,8 C 10,6 C 93 % 0 lf 1019,0 hPa 0,0 l/m 0 min 0 min 0 W/m 14,6 km/h (3 Bft)
24.06.2015 00:42 11,8 C 10,6 C 93 % 0 lf 1019,0 hPa 0,0 l/m 0 min 0 min 0 W/m 12,6 km/h (3 Bft)
24.06.2015 00:44 11,8 C 10,6 C 93 % 0 lf 1019,0 hPa 0,0 l/m 0 min 0 min 0 W/m 10,5 km/h (2 Bft)
24.06.2015 00:46 11,8 C 10,6 C 93 % 0 lf 1019,0 hPa 0,0 l/m 0 min 0 min 0 W/m 10,5 km/h (2 Bft)
24.06.2015 00:48 11,8 C 10,6 C 93 % 0 lf 1019,0 hPa 0,0 l/m 0 min 0 min 0 W/m 10,5 km/h (2 Bft)
24.06.2015 00:50 11,8 C 10,6 C 93 % 0 lf 1019,0 hPa 0,0 l/m 0 min 0 min 0 W/m 8,4 km/h (2 Bft)
24.06.2015 00:52 11,8 C 10,6 C 94 % 0 lf 1019,1 hPa 0,0 l/m 0 min 0 min 0 W/m 18,8 km/h (3 Bft)
24.06.2015 00:54 11,8 C 10,6 C 94 % 0 lf 1019,0 hPa 0,0 l/m 0 min 0 min 0 W/m 16,7 km/h (3 Bft)
24.06.2015 00:56 11,8 C 10,6 C 94 % 0 lf 1019,1 hPa 0,0 l/m 0 min 0 min 0 W/m 12,6 km/h (3 Bft)
24.06.2015 00:58 11,8 C 10,6 C 94 % 0 lf 1019,1 hPa 0,0 l/m 0 min 0 min 0 W/m 10,5 km/h (2 Bft)
24.06.2015 01:00 11,8 C 10,6 C 94 % 0 lf 1019,2 hPa 0,0 l/m 0 min 0 min 0 W/m 14,6 km/h (3 Bft)
24.06.2015 01:02 11,8 C 10,6 C 94 % 0 lf 1019,1 hPa 0,0 l/m 0 min 0 min 0 W/m 8,4 km/h (2 Bft)
24.06.2015 01:04 11,8 C 10,6 C 94 % 0 lf 1019,1 hPa 0,0 l/m 0 min 0 min 0 W/m 18,8 km/h (3 Bft)
24.06.2015 01:06 11,8 C 10,6 C 94 % 0 lf 1019,1 hPa 0,0 l/m 0 min 0 min 0 W/m 12,6 km/h (3 Bft)
24.06.2015 01:08 11,8 C 10,6 C 94 % 0 lf 1019,2 hPa 0,0 l/m 0 min 0 min 0 W/m 14,6 km/h (3 Bft)
24.06.2015 01:10 11,8 C 10,6 C 94 % 0 lf 1019,2 hPa 0,0 l/m 0 min 0 min 0 W/m 8,4 km/h (2 Bft)
24.06.2015 01:12 11,8 C 10,6 C 94 % 0 lf 1019,2 hPa 0,0 l/m 0 min 0 min 0 W/m 12,6 km/h (3 Bft)
24.06.2015 01:14 11,8 C 10,6 C 94 % 0 lf 1019,2 hPa 0,0 l/m 0 min 0 min 0 W/m 10,5 km/h (2 Bft)
24.06.2015 01:16 11,8 C 10,6 C 94 % 0 lf 1019,1 hPa 0,0 l/m 0 min 0 min 0 W/m 8,4 km/h (2 Bft)
24.06.2015 01:18 11,8 C 10,6 C 94 % 0 lf 1019,1 hPa 0,0 l/m 0 min 0 min 0 W/m 12,6 km/h (3 Bft)
24.06.2015 01:20 11,8 C 10,6 C 94 % 0 lf 1019,2 hPa 0,0 l/m 0 min 0 min 0 W/m 6,3 km/h (2 Bft)
24.06.2015 01:22 11,8 C 10,6 C 94 % 0 lf 1019,2 hPa 0,0 l/m 0 min 0 min 0 W/m 10,5 km/h (2 Bft)
24.06.2015 01:24 11,8 C 10,6 C 94 % 0 lf 1019,2 hPa 0,0 l/m 0 min 0 min 0 W/m 6,3 km/h (2 Bft)
24.06.2015 01:26 11,8 C 10,6 C 94 % 0 lf 1019,2 hPa 0,0 l/m 0 min 0 min 0 W/m 8,4 km/h (2 Bft)
24.06.2015 01:28 11,8 C 10,6 C 94 % 0 lf 1019,2 hPa 0,0 l/m 0 min 0 min 0 W/m 10,5 km/h (2 Bft)
24.06.2015 01:30 11,8 C 10,6 C 94 % 0 lf 1019,2 hPa 0,0 l/m 0 min 0 min 0 W/m 10,5 km/h (2 Bft)
24.06.2015 01:32 11,8 C 10,6 C 94 % 1 lf 1019,2 hPa 0,0 l/m 0 min 0 min 0 W/m 14,6 km/h (3 Bft)
24.06.2015 01:34 11,8 C 10,6 C 94 % 1 lf 1019,2 hPa 0,0 l/m 0 min 0 min 0 W/m 10,5 km/h (2 Bft)
24.06.2015 01:36 11,7 C 10,6 C 94 % 1 lf 1019,3 hPa 0,0 l/m 0 min 0 min 0 W/m 8,4 km/h (2 Bft)
24.06.2015 01:38 11,7 C 10,6 C 94 % 0 lf 1019,2 hPa 0,0 l/m 0 min 0 min 0 W/m 10,5 km/h (2 Bft)
24.06.2015 01:40 11,8 C 10,6 C 94 % 0 lf 1019,3 hPa 0,0 l/m 0 min 0 min 0 W/m 8,4 km/h (2 Bft)
24.06.2015 01:42 11,7 C 10,6 C 94 % 0 lf 1019,3 hPa 0,0 l/m 0 min 0 min 0 W/m 4,2 km/h (1 Bft)
24.06.2015 01:44 11,7 C 10,6 C 94 % 0 lf 1019,4 hPa 0,0 l/m 0 min 0 min 0 W/m 8,4 km/h (2 Bft)
24.06.2015 01:46 11,7 C 10,6 C 94 % 0 lf 1019,3 hPa 0,0 l/m 0 min 0 min 0 W/m 8,4 km/h (2 Bft)
24.06.2015 01:48 11,7 C 10,6 C 94 % 1 lf 1019,3 hPa 0,0 l/m 0 min 0 min 0 W/m 14,6 km/h (3 Bft)
24.06.2015 01:50 11,7 C 10,6 C 94 % 1 lf 1019,3 hPa 0,0 l/m 0 min 0 min 0 W/m 16,7 km/h (3 Bft)
24.06.2015 01:52 11,7 C 10,6 C 94 % 2 lf 1019,4 hPa 0,0 l/m 0 min 2 min 0 W/m 8,4 km/h (2 Bft)
24.06.2015 01:54 11,7 C 10,6 C 94 % 1 lf 1019,3 hPa 0,0 l/m 0 min 0 min 0 W/m 12,6 km/h (3 Bft)
24.06.2015 01:56 11,7 C 10,6 C 94 % 1 lf 1019,3 hPa 0,0 l/m 0 min 0 min 0 W/m 8,4 km/h (2 Bft)
24.06.2015 01:58 11,7 C 10,6 C 94 % 0 lf 1019,4 hPa 0,0 l/m 0 min 0 min 0 W/m 10,5 km/h (2 Bft)
24.06.2015 02:00 11,7 C 10,6 C 94 % 0 lf 1019,4 hPa 0,0 l/m 0 min 0 min 0 W/m 12,6 km/h (3 Bft)
24.06.2015 02:02 11,7 C 10,6 C 94 % 0 lf 1019,4 hPa 0,0 l/m 0 min 0 min 0 W/m 10,5 km/h (2 Bft)
24.06.2015 02:04 11,7 C 10,6 C 94 % 0 lf 1019,4 hPa 0,0 l/m 0 min 0 min 0 W/m 12,6 km/h (3 Bft)
24.06.2015 02:06 11,7 C 10,6 C 94 % 0 lf 1019,4 hPa 0,0 l/m 0 min 0 min 0 W/m 8,4 km/h (2 Bft)
24.06.2015 02:08 11,7 C 10,6 C 94 % 0 lf 1019,4 hPa 0,0 l/m 0 min 0 min 0 W/m 10,5 km/h (2 Bft)
24.06.2015 02:10 11,7 C 10,6 C 94 % 0 lf 1019,4 hPa 0,0 l/m 0 min 0 min 0 W/m 8,4 km/h (2 Bft)
24.06.2015 02:12 11,7 C 10,6 C 94 % 0 lf 1019,4 hPa 0,0 l/m 0 min 0 min 0 W/m 8,4 km/h (2 Bft)
24.06.2015 02:14 11,7 C 10,6 C 94 % 0 lf 1019,4 hPa 0,0 l/m 0 min 0 min 0 W/m 14,6 km/h (3 Bft)
24.06.2015 02:16 11,7 C 10,6 C 94 % 0 lf 1019,4 hPa 0,0 l/m 0 min 0 min 0 W/m 8,4 km/h (2 Bft)
24.06.2015 02:18 11,7 C 10,6 C 94 % 0 lf 1019,4 hPa 0,0 l/m 0 min 0 min 0 W/m 10,5 km/h (2 Bft)
24.06.2015 02:20 11,7 C 10,6 C 94 % 0 lf 1019,4 hPa 0,0 l/m 0 min 0 min 0 W/m 8,4 km/h (2 Bft)
24.06.2015 02:22 11,7 C 10,6 C 94 % 0 lf 1019,4 hPa 0,0 l/m 0 min 0 min 0 W/m 8,4 km/h (2 Bft)
24.06.2015 02:24 11,6 C 10,6 C 94 % 0 lf 1019,4 hPa 0,0 l/m 0 min 0 min 0 W/m 6,3 km/h (2 Bft)
24.06.2015 02:26 11,6 C 10,6 C 94 % 0 lf 1019,4 hPa 0,0 l/m 0 min 0 min 0 W/m 8,4 km/h (2 Bft)
24.06.2015 02:28 11,6 C 10,6 C 94 % 0 lf 1019,4 hPa 0,0 l/m 0 min 0 min 0 W/m 8,4 km/h (2 Bft)
24.06.2015 02:30 11,6 C 10,6 C 94 % 0 lf 1019,4 hPa 0,0 l/m 0 min 0 min 0 W/m 6,3 km/h (2 Bft)
24.06.2015 02:32 11,6 C 10,6 C 94 % 0 lf 1019,5 hPa 0,0 l/m 0 min 0 min 0 W/m 6,3 km/h (2 Bft)
24.06.2015 02:34 11,6 C 10,6 C 94 % 0 lf 1019,5 hPa 0,0 l/m 0 min 0 min 0 W/m 12,6 km/h (3 Bft)
24.06.2015 02:36 11,6 C 10,6 C 94 % 0 lf 1019,4 hPa 0,2 l/m 0 min 0 min 0 W/m 10,5 km/h (2 Bft)
24.06.2015 02:38 11,6 C 10,6 C 94 % 0 lf 1019,4 hPa 0,0 l/m 0 min 0 min 0 W/m 14,6 km/h (3 Bft)
24.06.2015 02:40 11,6 C 10,6 C 94 % 0 lf 1019,4 hPa 0,0 l/m 0 min 0 min 0 W/m 10,5 km/h (2 Bft)
24.06.2015 02:42 11,6 C 10,6 C 94 % 0 lf 1019,5 hPa 0,0 l/m 0 min 0 min 0 W/m 10,5 km/h (2 Bft)
24.06.2015 02:44 11,6 C 10,6 C 94 % 0 lf 1019,5 hPa 0,0 l/m 0 min 0 min 0 W/m 10,5 km/h (2 Bft)
24.06.2015 02:46 11,6 C 10,6 C 94 % 0 lf 1019,5 hPa 0,0 l/m 0 min 0 min 0 W/m 8,4 km/h (2 Bft)
24.06.2015 02:48 11,6 C 10,6 C 94 % 0 lf 1019,5 hPa 0,0 l/m 0 min 0 min 0 W/m 8,4 km/h (2 Bft)
24.06.2015 02:50 11,6 C 10,6 C 94 % 0 lf 1019,5 hPa 0,0 l/m 0 min 0 min 0 W/m 10,5 km/h (2 Bft)
24.06.2015 02:52 11,6 C 10,6 C 94 % 0 lf 1019,5 hPa 0,0 l/m 0 min 0 min 0 W/m 6,3 km/h (2 Bft)
24.06.2015 02:54 11,6 C 10,6 C 94 % 0 lf 1019,6 hPa 0,0 l/m 0 min 0 min 0 W/m 10,5 km/h (2 Bft)
24.06.2015 02:56 11,6 C 10,6 C 94 % 0 lf 1019,6 hPa 0,0 l/m 0 min 0 min 0 W/m 10,5 km/h (2 Bft)
24.06.2015 02:58 11,6 C 10,6 C 95 % 0 lf 1019,5 hPa 0,0 l/m 0 min 0 min 0 W/m 8,4 km/h (2 Bft)
24.06.2015 03:00 11,6 C 10,6 C 95 % 0 lf 1019,5 hPa 0,0 l/m 0 min 0 min 0 W/m 10,5 km/h (2 Bft)
24.06.2015 03:02 11,6 C 10,6 C 95 % 0 lf 1019,6 hPa 0,0 l/m 0 min 0 min 0 W/m 8,4 km/h (2 Bft)
24.06.2015 03:04 11,6 C 10,6 C 95 % 0 lf 1019,6 hPa 0,0 l/m 0 min 0 min 0 W/m 10,5 km/h (2 Bft)
24.06.2015 03:06 11,6 C 10,6 C 95 % 0 lf 1019,6 hPa 0,0 l/m 0 min 0 min 0 W/m 8,4 km/h (2 Bft)
24.06.2015 03:08 11,6 C 10,6 C 95 % 0 lf 1019,6 hPa 0,0 l/m 0 min 0 min 0 W/m 10,5 km/h (2 Bft)
24.06.2015 03:10 11,6 C 10,6 C 95 % 0 lf 1019,6 hPa 0,0 l/m 0 min 0 min 0 W/m 10,5 km/h (2 Bft)
24.06.2015 03:12 11,6 C 10,6 C 95 % 0 lf 1019,6 hPa 0,0 l/m 0 min 0 min 0 W/m 10,5 km/h (2 Bft)
24.06.2015 03:14 11,5 C 10,6 C 95 % 0 lf 1019,6 hPa 0,0 l/m 0 min 0 min 0 W/m 10,5 km/h (2 Bft)
24.06.2015 03:16 11,5 C 10,6 C 95 % 0 lf 1019,6 hPa 0,0 l/m 0 min 0 min 0 W/m 8,4 km/h (2 Bft)
24.06.2015 03:18 11,5 C 10,6 C 95 % 0 lf 1019,6 hPa 0,0 l/m 0 min 0 min 0 W/m 8,4 km/h (2 Bft)
24.06.2015 03:20 11,5 C 10,6 C 95 % 0 lf 1019,6 hPa 0,0 l/m 0 min 0 min 0 W/m 8,4 km/h (2 Bft)
24.06.2015 03:22 11,5 C 10,6 C 95 % 0 lf 1019,6 hPa 0,0 l/m 0 min 0 min 0 W/m 8,4 km/h (2 Bft)
24.06.2015 03:24 11,5 C 10,6 C 95 % 0 lf 1019,6 hPa 0,0 l/m 0 min 0 min 0 W/m 8,4 km/h (2 Bft)
24.06.2015 03:26 11,5 C 10,6 C 95 % 0 lf 1019,6 hPa 0,0 l/m 0 min 0 min 0 W/m 10,5 km/h (2 Bft)
24.06.2015 03:28 11,5 C 10,6 C 95 % 0 lf 1019,6 hPa 0,0 l/m 0 min 0 min 0 W/m 6,3 km/h (2 Bft)
24.06.2015 03:30 11,5 C 10,6 C 95 % 0 lf 1019,6 hPa 0,0 l/m 0 min 0 min 0 W/m 10,5 km/h (2 Bft)
24.06.2015 03:32 11,5 C 10,6 C 95 % 0 lf 1019,6 hPa 0,0 l/m 0 min 0 min 0 W/m 8,4 km/h (2 Bft)
24.06.2015 03:34 11,5 C 10,6 C 95 % 0 lf 1019,6 hPa 0,0 l/m 0 min 0 min 0 W/m 8,4 km/h (2 Bft)
24.06.2015 03:36 11,5 C 10,6 C 95 % 0 lf 1019,6 hPa 0,0 l/m 0 min 0 min 0 W/m 10,5 km/h (2 Bft)
24.06.2015 03:38 11,5 C 10,6 C 95 % 0 lf 1019,6 hPa 0,0 l/m 0 min 0 min 0 W/m 6,3 km/h (2 Bft)
24.06.2015 03:40 11,5 C 10,6 C 95 % 0 lf 1019,6 hPa 0,0 l/m 0 min 0 min 0 W/m 10,5 km/h (2 Bft)
24.06.2015 03:42 11,5 C 10,6 C 95 % 0 lf 1019,7 hPa 0,0 l/m 0 min 0 min 0 W/m 8,4 km/h (2 Bft)
24.06.2015 03:44 11,5 C 10,6 C 95 % 0 lf 1019,6 hPa 0,0 l/m 0 min 0 min 0 W/m 8,4 km/h (2 Bft)
24.06.2015 03:46 11,5 C 10,6 C 95 % 0 lf 1019,7 hPa 0,0 l/m 0 min 0 min 0 W/m 6,3 km/h (2 Bft)
24.06.2015 03:48 11,5 C 10,6 C 95 % 0 lf 1019,6 hPa 0,0 l/m 0 min 0 min 0 W/m 10,5 km/h (2 Bft)
24.06.2015 03:50 11,5 C 10,6 C 95 % 0 lf 1019,6 hPa 0,0 l/m 0 min 0 min 0 W/m 12,6 km/h (3 Bft)
24.06.2015 03:52 11,5 C 10,6 C 95 % 0 lf 1019,7 hPa 0,0 l/m 0 min 0 min 0 W/m 8,4 km/h (2 Bft)
24.06.2015 03:54 11,5 C 10,6 C 95 % 0 lf 1019,7 hPa 0,0 l/m 0 min 0 min 0 W/m 6,3 km/h (2 Bft)
24.06.2015 03:56 11,5 C 10,6 C 95 % 0 lf 1019,7 hPa 0,0 l/m 0 min 0 min 0 W/m 6,3 km/h (2 Bft)
24.06.2015 03:58 11,5 C 10,6 C 95 % 0 lf 1019,7 hPa 0,0 l/m 0 min 0 min 0 W/m 8,4 km/h (2 Bft)
24.06.2015 04:00 11,5 C 10,6 C 95 % 0 lf 1019,7 hPa 0,0 l/m 0 min 0 min 0 W/m 4,2 km/h (1 Bft)
24.06.2015 04:02 11,5 C 10,6 C 95 % 0 lf 1019,7 hPa 0,0 l/m 0 min 0 min 0 W/m 6,3 km/h (2 Bft)
24.06.2015 04:04 11,5 C 10,6 C 95 % 0 lf 1019,7 hPa 0,0 l/m 0 min 0 min 0 W/m 6,3 km/h (2 Bft)
24.06.2015 04:06 11,5 C 10,6 C 95 % 0 lf 1019,7 hPa 0,0 l/m 0 min 0 min 0 W/m 14,6 km/h (3 Bft)
24.06.2015 04:08 11,5 C 10,6 C 95 % 0 lf 1019,7 hPa 0,0 l/m 0 min 0 min 0 W/m 12,6 km/h (3 Bft)
24.06.2015 04:10 11,5 C 10,6 C 95 % 0 lf 1019,8 hPa 0,0 l/m 0 min 0 min 0 W/m 10,5 km/h (2 Bft)
24.06.2015 04:12 11,5 C 10,6 C 95 % 0 lf 1019,8 hPa 0,0 l/m 0 min 0 min 0 W/m 10,5 km/h (2 Bft)
24.06.2015 04:14 11,5 C 10,6 C 95 % 0 lf 1019,8 hPa 0,0 l/m 0 min 0 min 0 W/m 12,6 km/h (3 Bft)
24.06.2015 04:16 11,5 C 10,6 C 95 % 0 lf 1019,8 hPa 0,0 l/m 0 min 0 min 0 W/m 8,4 km/h (2 Bft)
24.06.2015 04:18 11,5 C 10,6 C 95 % 0 lf 1019,8 hPa 0,0 l/m 0 min 0 min 0 W/m 6,3 km/h (2 Bft)
24.06.2015 04:20 11,5 C 10,6 C 95 % 0 lf 1019,8 hPa 0,0 l/m 0 min 0 min 0 W/m 8,4 km/h (2 Bft)
24.06.2015 04:22 11,5 C 10,6 C 95 % 0 lf 1019,8 hPa 0,0 l/m 0 min 0 min 0 W/m 8,4 km/h (2 Bft)
24.06.2015 04:24 11,5 C 10,6 C 95 % 0 lf 1019,8 hPa 0,0 l/m 0 min 0 min 0 W/m 8,4 km/h (2 Bft)
24.06.2015 04:26 11,5 C 10,6 C 95 % 0 lf 1019,8 hPa 0,0 l/m 0 min 0 min 0 W/m 4,2 km/h (1 Bft)
24.06.2015 04:28 11,5 C 10,6 C 95 % 0 lf 1019,8 hPa 0,0 l/m 0 min 0 min 0 W/m 8,4 km/h (2 Bft)
24.06.2015 04:30 11,5 C 10,6 C 95 % 0 lf 1019,7 hPa 0,0 l/m 0 min 0 min 0 W/m 8,4 km/h (2 Bft)
24.06.2015 04:32 11,5 C 10,6 C 95 % 0 lf 1019,8 hPa 0,0 l/m 0 min 0 min 0 W/m 8,4 km/h (2 Bft)
24.06.2015 04:34 11,5 C 10,6 C 95 % 0 lf 1019,9 hPa 0,0 l/m 0 min 0 min 0 W/m 6,3 km/h (2 Bft)
24.06.2015 04:36 11,5 C 10,6 C 95 % 0 lf 1019,9 hPa 0,0 l/m 0 min 0 min 0 W/m 8,4 km/h (2 Bft)
24.06.2015 04:38 11,5 C 10,6 C 95 % 0 lf 1020,0 hPa 0,0 l/m 0 min 0 min 0 W/m 6,3 km/h (2 Bft)
24.06.2015 04:40 11,5 C 10,6 C 95 % 0 lf 1019,9 hPa 0,0 l/m 0 min 0 min 0 W/m 6,3 km/h (2 Bft)
24.06.2015 04:42 11,5 C 10,6 C 95 % 0 lf 1020,0 hPa 0,0 l/m 0 min 0 min 0 W/m 6,3 km/h (2 Bft)
24.06.2015 04:44 11,5 C 10,6 C 95 % 0 lf 1020,0 hPa 0,0 l/m 0 min 0 min 0 W/m 8,4 km/h (2 Bft)
24.06.2015 04:46 11,5 C 10,6 C 95 % 0 lf 1019,9 hPa 0,0 l/m 0 min 0 min 0 W/m 8,4 km/h (2 Bft)
24.06.2015 04:48 11,5 C 10,6 C 95 % 0 lf 1019,9 hPa 0,0 l/m 0 min 0 min 0 W/m 8,4 km/h (2 Bft)
24.06.2015 04:50 11,5 C 10,6 C 95 % 0 lf 1019,9 hPa 0,0 l/m 0 min 0 min 0 W/m 10,5 km/h (2 Bft)
24.06.2015 04:52 11,5 C 10,6 C 95 % 0 lf 1020,0 hPa 0,0 l/m 0 min 0 min 0 W/m 6,3 km/h (2 Bft)
24.06.2015 04:54 11,5 C 10,6 C 95 % 0 lf 1020,0 hPa 0,0 l/m 0 min 0 min 0 W/m 8,4 km/h (2 Bft)
24.06.2015 04:56 11,5 C 10,6 C 95 % 0 lf 1020,0 hPa 0,0 l/m 0 min 0 min 0 W/m 6,3 km/h (2 Bft)
24.06.2015 04:58 11,5 C 10,6 C 95 % 0 lf 1020,0 hPa 0,0 l/m 0 min 0 min 0 W/m 8,4 km/h (2 Bft)
24.06.2015 05:00 11,5 C 10,6 C 95 % 0 lf 1020,0 hPa 0,0 l/m 0 min 0 min 0 W/m 8,4 km/h (2 Bft)
24.06.2015 05:02 11,5 C 10,6 C 95 % 0 lf 1020,0 hPa 0,0 l/m 0 min 0 min 0 W/m 6,3 km/h (2 Bft)
24.06.2015 05:04 11,5 C 10,6 C 95 % 0 lf 1020,1 hPa 0,0 l/m 0 min 0 min 0 W/m 6,3 km/h (2 Bft)
24.06.2015 05:06 11,5 C 10,6 C 95 % 0 lf 1020,1 hPa 0,0 l/m 0 min 0 min 0 W/m 2,1 km/h (1 Bft)
24.06.2015 05:08 11,5 C 10,6 C 95 % 0 lf 1020,1 hPa 0,0 l/m 0 min 0 min 0 W/m 6,3 km/h (2 Bft)
24.06.2015 05:10 11,5 C 10,6 C 95 % 0 lf 1020,2 hPa 0,0 l/m 0 min 0 min 0 W/m 6,3 km/h (2 Bft)
24.06.2015 05:12 11,5 C 10,6 C 95 % 0 lf 1020,2 hPa 0,0 l/m 0 min 0 min 0 W/m 6,3 km/h (2 Bft)
24.06.2015 05:14 11,5 C 10,6 C 95 % 0 lf 1020,3 hPa 0,0 l/m 0 min 0 min 0 W/m 4,2 km/h (1 Bft)
24.06.2015 05:16 11,5 C 10,6 C 95 % 0 lf 1020,3 hPa 0,0 l/m 0 min 0 min 0 W/m 4,2 km/h (1 Bft)
24.06.2015 05:18 11,5 C 10,6 C 95 % 0 lf 1020,3 hPa 0,0 l/m 0 min 0 min 0 W/m 4,2 km/h (1 Bft)
24.06.2015 05:20 11,5 C 10,6 C 95 % 0 lf 1020,4 hPa 0,0 l/m 0 min 0 min 0 W/m 8,4 km/h (2 Bft)
24.06.2015 05:22 11,5 C 10,6 C 95 % 0 lf 1020,4 hPa 0,0 l/m 0 min 0 min 0 W/m 6,3 km/h (2 Bft)
24.06.2015 05:24 11,5 C 10,6 C 95 % 0 lf 1020,4 hPa 0,0 l/m 0 min 0 min 0 W/m 8,4 km/h (2 Bft)
24.06.2015 05:26 11,5 C 10,6 C 95 % 0 lf 1020,4 hPa 0,0 l/m 0 min 0 min 0 W/m 6,3 km/h (2 Bft)
24.06.2015 05:28 11,5 C 10,6 C 95 % 0 lf 1020,4 hPa 0,0 l/m 0 min 0 min 0 W/m 6,3 km/h (2 Bft)
24.06.2015 05:30 11,5 C 10,6 C 95 % 0 lf 1020,4 hPa 0,0 l/m 0 min 0 min 0 W/m 10,5 km/h (2 Bft)
24.06.2015 05:32 11,5 C 10,6 C 95 % 0 lf 1020,4 hPa 0,0 l/m 0 min 0 min 5 W/m 6,3 km/h (2 Bft)
24.06.2015 05:34 11,5 C 10,6 C 95 % 0 lf 1020,4 hPa 0,0 l/m 0 min 0 min 5 W/m 8,4 km/h (2 Bft)
24.06.2015 05:36 11,5 C 10,6 C 95 % 0 lf 1020,4 hPa 0,0 l/m 0 min 0 min 5 W/m 10,5 km/h (2 Bft)
24.06.2015 05:38 11,5 C 10,6 C 95 % 0 lf 1020,4 hPa 0,0 l/m 0 min 0 min 5 W/m 10,5 km/h (2 Bft)
24.06.2015 05:40 11,4 C 10,6 C 95 % 0 lf 1020,4 hPa 0,0 l/m 0 min 0 min 5 W/m 10,5 km/h (2 Bft)
24.06.2015 05:42 11,5 C 10,6 C 95 % 0 lf 1020,5 hPa 0,0 l/m 0 min 0 min 5 W/m 10,5 km/h (2 Bft)
24.06.2015 05:44 11,4 C 10,6 C 95 % 0 lf 1020,4 hPa 0,0 l/m 0 min 0 min 6 W/m 6,3 km/h (2 Bft)
24.06.2015 05:46 11,4 C 10,6 C 95 % 0 lf 1020,5 hPa 0,0 l/m 0 min 0 min 7 W/m 6,3 km/h (2 Bft)
24.06.2015 05:48 11,4 C 10,6 C 95 % 0 lf 1020,5 hPa 0,0 l/m 0 min 0 min 7 W/m 8,4 km/h (2 Bft)
24.06.2015 05:50 11,4 C 10,6 C 95 % 0 lf 1020,5 hPa 0,0 l/m 0 min 0 min 7 W/m 6,3 km/h (2 Bft)
24.06.2015 05:52 11,5 C 10,6 C 95 % 0 lf 1020,5 hPa 0,0 l/m 0 min 0 min 8 W/m 6,3 km/h (2 Bft)
24.06.2015 05:54 11,4 C 10,6 C 95 % 0 lf 1020,5 hPa 0,0 l/m 0 min 0 min 9 W/m 8,4 km/h (2 Bft)
24.06.2015 05:56 11,4 C 10,6 C 95 % 0 lf 1020,5 hPa 0,0 l/m 0 min 0 min 9 W/m 10,5 km/h (2 Bft)
24.06.2015 05:58 11,4 C 10,6 C 95 % 0 lf 1020,6 hPa 0,0 l/m 0 min 0 min 9 W/m 6,3 km/h (2 Bft)
24.06.2015 06:00 11,4 C 10,6 C 95 % 0 lf 1020,5 hPa 0,0 l/m 0 min 0 min 10 W/m 4,2 km/h (1 Bft)
24.06.2015 06:03 11,5 C 10,6 C 95 % 0 lf 1020,6 hPa 0,0 l/m 0 min 0 min 11 W/m 6,3 km/h (2 Bft)
24.06.2015 06:05 11,5 C 10,6 C 95 % 0 lf 1020,5 hPa 0,0 l/m 0 min 0 min 11 W/m 8,4 km/h (2 Bft)
24.06.2015 06:06 11,5 C 10,6 C 95 % 0 lf 1020,6 hPa 0,0 l/m 0 min 0 min 11 W/m 8,4 km/h (2 Bft)
24.06.2015 06:08 11,5 C 10,6 C 95 % 0 lf 1020,6 hPa 0,0 l/m 0 min 0 min 11 W/m 8,4 km/h (2 Bft)
24.06.2015 06:10 11,5 C 10,6 C 95 % 0 lf 1020,6 hPa 0,0 l/m 0 min 0 min 11 W/m 6,3 km/h (2 Bft)
24.06.2015 06:12 11,5 C 10,6 C 95 % 0 lf 1020,6 hPa 0,0 l/m 0 min 0 min 11 W/m 4,2 km/h (1 Bft)
24.06.2015 06:14 11,5 C 10,6 C 95 % 0 lf 1020,5 hPa 0,0 l/m 0 min 0 min 12 W/m 6,3 km/h (2 Bft)
24.06.2015 06:16 11,5 C 10,6 C 95 % 0 lf 1020,5 hPa 0,0 l/m 0 min 0 min 14 W/m 8,4 km/h (2 Bft)
24.06.2015 06:18 11,5 C 10,6 C 95 % 0 lf 1020,6 hPa 0,0 l/m 0 min 0 min 14 W/m 12,6 km/h (3 Bft)
24.06.2015 06:20 11,5 C 10,6 C 95 % 0 lf 1020,6 hPa 0,0 l/m 0 min 0 min 14 W/m 8,4 km/h (2 Bft)
24.06.2015 06:22 11,5 C 10,6 C 95 % 0 lf 1020,6 hPa 0,0 l/m 0 min 0 min 14 W/m 6,3 km/h (2 Bft)
24.06.2015 06:24 11,5 C 10,6 C 95 % 0 lf 1020,6 hPa 0,0 l/m 0 min 0 min 14 W/m 6,3 km/h (2 Bft)
24.06.2015 06:26 11,5 C 10,6 C 95 % 0 lf 1020,6 hPa 0,0 l/m 0 min 0 min 15 W/m 6,3 km/h (2 Bft)
24.06.2015 06:28 11,5 C 10,6 C 95 % 0 lf 1020,6 hPa 0,0 l/m 0 min 0 min 16 W/m 6,3 km/h (2 Bft)
24.06.2015 06:30 11,5 C 10,6 C 95 % 0 lf 1020,7 hPa 0,0 l/m 0 min 0 min 16 W/m 6,3 km/h (2 Bft)
24.06.2015 06:32 11,5 C 10,6 C 95 % 0 lf 1020,7 hPa 0,0 l/m 0 min 0 min 16 W/m 10,5 km/h (2 Bft)
24.06.2015 06:34 11,5 C 10,6 C 95 % 0 lf 1020,8 hPa 0,0 l/m 0 min 0 min 18 W/m 12,6 km/h (3 Bft)
24.06.2015 06:36 11,5 C 10,6 C 95 % 0 lf 1020,7 hPa 0,0 l/m 0 min 0 min 18 W/m 14,6 km/h (3 Bft)
24.06.2015 06:38 11,5 C 10,6 C 95 % 0 lf 1020,8 hPa 0,0 l/m 0 min 0 min 18 W/m 10,5 km/h (2 Bft)
24.06.2015 06:40 11,5 C 10,6 C 95 % 0 lf 1020,8 hPa 0,0 l/m 0 min 0 min 18 W/m 8,4 km/h (2 Bft)
24.06.2015 06:42 11,5 C 10,6 C 95 % 0 lf 1020,7 hPa 0,0 l/m 0 min 0 min 19 W/m 6,3 km/h (2 Bft)
24.06.2015 06:44 11,5 C 10,6 C 95 % 0 lf 1020,8 hPa 0,0 l/m 0 min 0 min 19 W/m 6,3 km/h (2 Bft)
24.06.2015 06:46 11,5 C 10,6 C 95 % 0 lf 1020,8 hPa 0,0 l/m 0 min 0 min 19 W/m 10,5 km/h (2 Bft)
24.06.2015 06:48 11,5 C 10,6 C 95 % 0 lf 1020,8 hPa 0,0 l/m 0 min 0 min 20 W/m 10,5 km/h (2 Bft)
24.06.2015 06:50 11,5 C 10,6 C 95 % 0 lf 1020,8 hPa 0,0 l/m 0 min 0 min 21 W/m 10,5 km/h (2 Bft)
24.06.2015 06:52 11,5 C 10,6 C 95 % 0 lf 1020,9 hPa 0,0 l/m 0 min 0 min 19 W/m 8,4 km/h (2 Bft)
24.06.2015 06:54 11,5 C 10,6 C 95 % 0 lf 1020,9 hPa 0,0 l/m 0 min 0 min 21 W/m 6,3 km/h (2 Bft)
24.06.2015 06:56 11,5 C 10,6 C 94 % 0 lf 1020,9 hPa 0,0 l/m 0 min 0 min 23 W/m 8,4 km/h (2 Bft)
24.06.2015 06:58 11,6 C 10,6 C 94 % 0 lf 1020,9 hPa 0,0 l/m 0 min 0 min 23 W/m 8,4 km/h (2 Bft)
24.06.2015 07:00 11,6 C 10,6 C 94 % 0 lf 1020,9 hPa 0,0 l/m 0 min 0 min 24 W/m 8,4 km/h (2 Bft)
24.06.2015 07:02 11,6 C 10,6 C 94 % 0 lf 1020,9 hPa 0,0 l/m 0 min 0 min 25 W/m 6,3 km/h (2 Bft)
24.06.2015 07:04 11,6 C 10,6 C 94 % 0 lf 1021,0 hPa 0,0 l/m 0 min 0 min 25 W/m 6,3 km/h (2 Bft)
24.06.2015 07:06 11,6 C 10,6 C 94 % 0 lf 1021,0 hPa 0,0 l/m 0 min 0 min 25 W/m 10,5 km/h (2 Bft)
24.06.2015 07:08 11,6 C 11,1 C 94 % 0 lf 1021,0 hPa 0,0 l/m 0 min 0 min 25 W/m 6,3 km/h (2 Bft)
24.06.2015 07:10 11,6 C 10,6 C 94 % 0 lf 1021,0 hPa 0,0 l/m 0 min 0 min 24 W/m 6,3 km/h (2 Bft)
24.06.2015 07:12 11,6 C 10,6 C 94 % 0 lf 1021,0 hPa 0,0 l/m 0 min 0 min 26 W/m 10,5 km/h (2 Bft)
24.06.2015 07:14 11,6 C 10,6 C 94 % 0 lf 1021,1 hPa 0,0 l/m 0 min 0 min 26 W/m 6,3 km/h (2 Bft)
24.06.2015 07:16 11,6 C 10,6 C 94 % 0 lf 1021,1 hPa 0,0 l/m 0 min 0 min 25 W/m 4,2 km/h (1 Bft)
24.06.2015 07:18 11,6 C 10,6 C 94 % 0 lf 1021,0 hPa 0,0 l/m 0 min 0 min 26 W/m 6,3 km/h (2 Bft)
24.06.2015 07:20 11,6 C 11,1 C 94 % 0 lf 1021,1 hPa 0,0 l/m 0 min 0 min 29 W/m 6,3 km/h (2 Bft)
24.06.2015 07:22 11,6 C 11,1 C 94 % 0 lf 1021,1 hPa 0,0 l/m 0 min 0 min 31 W/m 10,5 km/h (2 Bft)
24.06.2015 07:24 11,6 C 11,1 C 94 % 0 lf 1021,1 hPa 0,0 l/m 0 min 0 min 33 W/m 10,5 km/h (2 Bft)
24.06.2015 07:26 11,6 C 11,1 C 94 % 0 lf 1021,1 hPa 0,0 l/m 0 min 0 min 33 W/m 4,2 km/h (1 Bft)
24.06.2015 07:28 11,6 C 11,1 C 94 % 0 lf 1021,1 hPa 0,0 l/m 0 min 0 min 33 W/m 8,4 km/h (2 Bft)
24.06.2015 07:30 11,6 C 11,1 C 94 % 0 lf 1021,1 hPa 0,0 l/m 0 min 0 min 33 W/m 10,5 km/h (2 Bft)
24.06.2015 07:32 11,6 C 11,1 C 94 % 0 lf 1021,1 hPa 0,0 l/m 0 min 0 min 33 W/m 8,4 km/h (2 Bft)
24.06.2015 07:34 11,6 C 11,1 C 94 % 0 lf 1021,1 hPa 0,0 l/m 0 min 0 min 35 W/m 6,3 km/h (2 Bft)
24.06.2015 07:36 11,7 C 11,1 C 94 % 0 lf 1021,1 hPa 0,0 l/m 0 min 0 min 38 W/m 6,3 km/h (2 Bft)
24.06.2015 07:38 11,7 C 11,1 C 94 % 0 lf 1021,1 hPa 0,0 l/m 0 min 0 min 39 W/m 10,5 km/h (2 Bft)
24.06.2015 07:40 11,7 C 11,1 C 94 % 0 lf 1021,2 hPa 0,0 l/m 0 min 0 min 39 W/m 6,3 km/h (2 Bft)
24.06.2015 07:42 11,7 C 11,1 C 94 % 0 lf 1021,2 hPa 0,0 l/m 0 min 0 min 39 W/m 10,5 km/h (2 Bft)
24.06.2015 07:44 11,7 C 11,1 C 94 % 0 lf 1021,2 hPa 0,0 l/m 0 min 0 min 38 W/m 8,4 km/h (2 Bft)
24.06.2015 07:46 11,7 C 11,1 C 94 % 0 lf 1021,2 hPa 0,0 l/m 0 min 0 min 37 W/m 8,4 km/h (2 Bft)
24.06.2015 07:48 11,7 C 11,1 C 94 % 0 lf 1021,2 hPa 0,0 l/m 0 min 0 min 38 W/m 8,4 km/h (2 Bft)
24.06.2015 07:50 11,7 C 11,1 C 94 % 0 lf 1021,3 hPa 0,0 l/m 0 min 0 min 36 W/m 4,2 km/h (1 Bft)
24.06.2015 07:52 11,7 C 11,1 C 94 % 0 lf 1021,3 hPa 0,0 l/m 0 min 0 min 37 W/m 10,5 km/h (2 Bft)
24.06.2015 07:54 11,7 C 11,1 C 94 % 0 lf 1021,3 hPa 0,0 l/m 0 min 0 min 36 W/m 4,2 km/h (1 Bft)
24.06.2015 07:56 11,7 C 11,1 C 94 % 0 lf 1021,3 hPa 0,0 l/m 0 min 0 min 38 W/m 6,3 km/h (2 Bft)
24.06.2015 07:58 11,7 C 11,1 C 94 % 0 lf 1021,3 hPa 0,0 l/m 0 min 0 min 40 W/m 8,4 km/h (2 Bft)
24.06.2015 08:00 11,7 C 11,1 C 94 % 0 lf 1021,3 hPa 0,0 l/m 0 min 0 min 43 W/m 6,3 km/h (2 Bft)
24.06.2015 08:02 11,7 C 11,1 C 94 % 0 lf 1021,3 hPa 0,0 l/m 0 min 0 min 46 W/m 6,3 km/h (2 Bft)
24.06.2015 08:04 11,8 C 11,1 C 94 % 0 lf 1021,3 hPa 0,0 l/m 0 min 0 min 47 W/m 8,4 km/h (2 Bft)
24.06.2015 08:06 11,8 C 11,1 C 94 % 0 lf 1021,3 hPa 0,0 l/m 0 min 0 min 46 W/m 6,3 km/h (2 Bft)
24.06.2015 08:08 11,8 C 11,1 C 94 % 0 lf 1021,4 hPa 0,0 l/m 0 min 0 min 44 W/m 4,2 km/h (1 Bft)
24.06.2015 08:10 11,8 C 11,1 C 94 % 0 lf 1021,3 hPa 0,0 l/m 0 min 0 min 44 W/m 2,1 km/h (1 Bft)
24.06.2015 08:12 11,8 C 11,1 C 94 % 0 lf 1021,3 hPa 0,0 l/m 0 min 0 min 46 W/m 6,3 km/h (2 Bft)
24.06.2015 08:14 11,8 C 11,1 C 94 % 0 lf 1021,4 hPa 0,0 l/m 0 min 0 min 48 W/m 6,3 km/h (2 Bft)
24.06.2015 08:16 11,8 C 11,1 C 93 % 0 lf 1021,4 hPa 0,0 l/m 0 min 0 min 49 W/m 8,4 km/h (2 Bft)
24.06.2015 08:18 11,8 C 11,1 C 93 % 0 lf 1021,5 hPa 0,0 l/m 0 min 0 min 50 W/m 6,3 km/h (2 Bft)
24.06.2015 08:20 11,9 C 11,1 C 93 % 0 lf 1021,5 hPa 0,0 l/m 0 min 0 min 53 W/m 4,2 km/h (1 Bft)
24.06.2015 08:22 11,9 C 11,1 C 93 % 0 lf 1021,5 hPa 0,0 l/m 0 min 0 min 54 W/m 8,4 km/h (2 Bft)
24.06.2015 08:24 11,9 C 11,7 C 93 % 0 lf 1021,5 hPa 0,0 l/m 0 min 0 min 54 W/m 6,3 km/h (2 Bft)
24.06.2015 08:26 11,9 C 11,7 C 93 % 0 lf 1021,5 hPa 0,0 l/m 0 min 0 min 54 W/m 6,3 km/h (2 Bft)
24.06.2015 08:28 11,9 C 11,7 C 93 % 0 lf 1021,6 hPa 0,0 l/m 0 min 0 min 54 W/m 6,3 km/h (2 Bft)
24.06.2015 08:30 11,9 C 11,7 C 93 % 0 lf 1021,6 hPa 0,0 l/m 0 min 0 min 56 W/m 10,5 km/h (2 Bft)
24.06.2015 08:32 11,9 C 11,7 C 93 % 0 lf 1021,6 hPa 0,0 l/m 0 min 0 min 56 W/m 6,3 km/h (2 Bft)
24.06.2015 08:34 12,0 C 11,7 C 93 % 0 lf 1021,6 hPa 0,0 l/m 0 min 0 min 58 W/m 6,3 km/h (2 Bft)
24.06.2015 08:36 11,9 C 11,7 C 93 % 0 lf 1021,6 hPa 0,0 l/m 0 min 0 min 63 W/m 10,5 km/h (2 Bft)
24.06.2015 08:38 12,0 C 11,7 C 93 % 0 lf 1021,6 hPa 0,0 l/m 0 min 0 min 65 W/m 8,4 km/h (2 Bft)
24.06.2015 08:40 12,0 C 11,7 C 93 % 0 lf 1021,7 hPa 0,0 l/m 0 min 0 min 69 W/m 6,3 km/h (2 Bft)
24.06.2015 08:42 12,0 C 11,7 C 93 % 0 lf 1021,7 hPa 0,0 l/m 0 min 0 min 76 W/m 10,5 km/h (2 Bft)
24.06.2015 08:44 12,1 C 11,7 C 93 % 0 lf 1021,7 hPa 0,0 l/m 0 min 0 min 77 W/m 8,4 km/h (2 Bft)
24.06.2015 08:46 12,1 C 11,7 C 93 % 0 lf 1021,7 hPa 0,0 l/m 0 min 0 min 77 W/m 10,5 km/h (2 Bft)
24.06.2015 08:48 12,1 C 11,7 C 93 % 0 lf 1021,7 hPa 0,0 l/m 0 min 0 min 77 W/m 12,6 km/h (3 Bft)
24.06.2015 08:50 12,1 C 11,7 C 93 % 0 lf 1021,7 hPa 0,0 l/m 0 min 0 min 77 W/m 14,6 km/h (3 Bft)
24.06.2015 08:52 12,1 C 11,7 C 93 % 0 lf 1021,8 hPa 0,0 l/m 0 min 0 min 77 W/m 12,6 km/h (3 Bft)
24.06.2015 08:54 12,1 C 11,7 C 92 % 0 lf 1021,7 hPa 0,0 l/m 0 min 0 min 77 W/m 8,4 km/h (2 Bft)
24.06.2015 08:56 12,1 C 11,7 C 92 % 0 lf 1021,8 hPa 0,0 l/m 0 min 0 min 77 W/m 12,6 km/h (3 Bft)
24.06.2015 08:58 12,1 C 11,7 C 92 % 0 lf 1021,8 hPa 0,0 l/m 0 min 0 min 79 W/m 16,7 km/h (3 Bft)
24.06.2015 09:00 12,1 C 11,7 C 92 % 0 lf 1021,8 hPa 0,0 l/m 0 min 0 min 79 W/m 10,5 km/h (2 Bft)
24.06.2015 09:02 12,1 C 11,7 C 92 % 0 lf 1021,8 hPa 0,0 l/m 0 min 0 min 76 W/m 10,5 km/h (2 Bft)
24.06.2015 09:04 12,2 C 11,7 C 92 % 0 lf 1021,8 hPa 0,0 l/m 0 min 0 min 77 W/m 12,6 km/h (3 Bft)
24.06.2015 09:06 12,2 C 11,7 C 92 % 0 lf 1021,9 hPa 0,0 l/m 0 min 0 min 81 W/m 12,6 km/h (3 Bft)
24.06.2015 09:08 12,2 C 11,7 C 92 % 0 lf 1021,9 hPa 0,0 l/m 0 min 0 min 81 W/m 8,4 km/h (2 Bft)
24.06.2015 09:10 12,2 C 11,7 C 92 % 0 lf 1021,9 hPa 0,0 l/m 0 min 0 min 81 W/m 10,5 km/h (2 Bft)
24.06.2015 09:12 12,2 C 11,7 C 92 % 0 lf 1021,9 hPa 0,0 l/m 0 min 0 min 86 W/m 8,4 km/h (2 Bft)
24.06.2015 09:14 12,2 C 11,7 C 92 % 0 lf 1021,8 hPa 0,0 l/m 0 min 0 min 90 W/m 12,6 km/h (3 Bft)
24.06.2015 09:16 12,2 C 11,7 C 92 % 0 lf 1021,9 hPa 0,0 l/m 0 min 0 min 87 W/m 8,4 km/h (2 Bft)
24.06.2015 09:18 12,3 C 11,7 C 91 % 0 lf 1021,9 hPa 0,0 l/m 0 min 0 min 78 W/m 8,4 km/h (2 Bft)
24.06.2015 09:20 12,3 C 11,7 C 91 % 0 lf 1021,9 hPa 0,0 l/m 0 min 0 min 80 W/m 12,6 km/h (3 Bft)
24.06.2015 09:22 12,3 C 11,7 C 91 % 0 lf 1021,9 hPa 0,0 l/m 0 min 0 min 83 W/m 14,6 km/h (3 Bft)
24.06.2015 09:24 12,3 C 11,7 C 91 % 0 lf 1021,9 hPa 0,0 l/m 0 min 0 min 90 W/m 10,5 km/h (2 Bft)
24.06.2015 09:26 12,3 C 11,7 C 91 % 0 lf 1021,9 hPa 0,0 l/m 0 min 0 min 93 W/m 10,5 km/h (2 Bft)
24.06.2015 09:28 12,3 C 11,7 C 91 % 0 lf 1021,9 hPa 0,0 l/m 0 min 0 min 100 W/m 10,5 km/h (2 Bft)
24.06.2015 09:30 12,3 C 11,7 C 91 % 0 lf 1021,9 hPa 0,0 l/m 0 min 0 min 101 W/m 10,5 km/h (2 Bft)
24.06.2015 09:32 12,4 C 11,7 C 91 % 0 lf 1021,9 hPa 0,0 l/m 0 min 0 min 100 W/m 10,5 km/h (2 Bft)
24.06.2015 09:34 12,4 C 11,7 C 91 % 0 lf 1021,9 hPa 0,0 l/m 0 min 0 min 99 W/m 10,5 km/h (2 Bft)
24.06.2015 09:36 12,4 C 11,7 C 91 % 0 lf 1021,9 hPa 0,0 l/m 0 min 0 min 98 W/m 12,6 km/h (3 Bft)
24.06.2015 09:38 12,4 C 11,7 C 91 % 0 lf 1021,9 hPa 0,0 l/m 0 min 0 min 103 W/m 8,4 km/h (2 Bft)
24.06.2015 09:40 12,4 C 11,7 C 91 % 0 lf 1021,9 hPa 0,0 l/m 0 min 0 min 118 W/m 10,5 km/h (2 Bft)
24.06.2015 09:42 12,4 C 12,2 C 91 % 0 lf 1021,9 hPa 0,0 l/m 0 min 0 min 124 W/m 8,4 km/h (2 Bft)
24.06.2015 09:44 12,4 C 12,2 C 91 % 0 lf 1021,9 hPa 0,0 l/m 0 min 0 min 127 W/m 10,5 km/h (2 Bft)
24.06.2015 09:46 12,5 C 12,2 C 90 % 0 lf 1022,0 hPa 0,0 l/m 0 min 0 min 136 W/m 8,4 km/h (2 Bft)
24.06.2015 09:48 12,5 C 12,2 C 90 % 0 lf 1021,9 hPa 0,0 l/m 0 min 0 min 146 W/m 12,6 km/h (3 Bft)
24.06.2015 09:50 12,5 C 12,2 C 90 % 0 lf 1021,9 hPa 0,0 l/m 0 min 0 min 149 W/m 12,6 km/h (3 Bft)
24.06.2015 09:52 12,6 C 12,2 C 90 % 0 lf 1022,0 hPa 0,0 l/m 0 min 0 min 150 W/m 8,4 km/h (2 Bft)
24.06.2015 09:54 12,6 C 12,2 C 90 % 0 lf 1022,0 hPa 0,0 l/m 0 min 0 min 153 W/m 8,4 km/h (2 Bft)
24.06.2015 09:56 12,6 C 12,2 C 90 % 0 lf 1021,9 hPa 0,0 l/m 0 min 0 min 149 W/m 10,5 km/h (2 Bft)
24.06.2015 09:58 12,6 C 12,2 C 90 % 0 lf 1022,0 hPa 0,0 l/m 0 min 0 min 145 W/m 12,6 km/h (3 Bft)
24.06.2015 10:00 12,6 C 12,2 C 89 % 0 lf 1022,0 hPa 0,0 l/m 0 min 0 min 148 W/m 18,8 km/h (3 Bft)
24.06.2015 10:02 12,7 C 12,2 C 89 % 0 lf 1022,0 hPa 0,0 l/m 0 min 0 min 146 W/m 10,5 km/h (2 Bft)
24.06.2015 10:04 12,7 C 12,2 C 89 % 0 lf 1022,1 hPa 0,0 l/m 0 min 0 min 136 W/m 12,6 km/h (3 Bft)
24.06.2015 10:06 12,7 C 12,2 C 88 % 0 lf 1022,1 hPa 0,0 l/m 0 min 0 min 130 W/m 12,6 km/h (3 Bft)
24.06.2015 10:08 12,7 C 12,2 C 88 % 0 lf 1022,0 hPa 0,0 l/m 0 min 0 min 131 W/m 10,5 km/h (2 Bft)
24.06.2015 10:10 12,8 C 12,2 C 88 % 0 lf 1022,1 hPa 0,0 l/m 0 min 0 min 134 W/m 12,6 km/h (3 Bft)
24.06.2015 10:12 12,8 C 12,2 C 88 % 0 lf 1022,1 hPa 0,0 l/m 0 min 0 min 128 W/m 10,5 km/h (2 Bft)
24.06.2015 10:14 12,8 C 12,2 C 88 % 0 lf 1022,1 hPa 0,0 l/m 0 min 0 min 127 W/m 6,3 km/h (2 Bft)
24.06.2015 10:16 12,9 C 12,2 C 87 % 0 lf 1022,0 hPa 0,0 l/m 0 min 0 min 125 W/m 8,4 km/h (2 Bft)
24.06.2015 10:18 12,9 C 12,2 C 87 % 0 lf 1022,0 hPa 0,0 l/m 0 min 0 min 122 W/m 10,5 km/h (2 Bft)
24.06.2015 10:20 12,9 C 12,2 C 87 % 0 lf 1022,0 hPa 0,0 l/m 0 min 0 min 115 W/m 8,4 km/h (2 Bft)
24.06.2015 10:22 12,9 C 12,2 C 87 % 0 lf 1022,0 hPa 0,0 l/m 0 min 0 min 112 W/m 8,4 km/h (2 Bft)
24.06.2015 10:24 13,0 C 12,2 C 87 % 0 lf 1022,0 hPa 0,0 l/m 0 min 0 min 119 W/m 6,3 km/h (2 Bft)
24.06.2015 10:26 13,0 C 12,2 C 87 % 0 lf 1022,0 hPa 0,0 l/m 0 min 0 min 117 W/m 8,4 km/h (2 Bft)
24.06.2015 10:28 13,1 C 12,2 C 87 % 0 lf 1022,0 hPa 0,0 l/m 0 min 0 min 120 W/m 10,5 km/h (2 Bft)
24.06.2015 10:30 13,1 C 12,2 C 87 % 0 lf 1022,0 hPa 0,0 l/m 0 min 0 min 120 W/m 10,5 km/h (2 Bft)
24.06.2015 10:32 13,1 C 12,2 C 87 % 0 lf 1022,0 hPa 0,0 l/m 0 min 0 min 111 W/m 10,5 km/h (2 Bft)
24.06.2015 10:34 13,1 C 12,2 C 87 % 0 lf 1022,0 hPa 0,0 l/m 0 min 0 min 106 W/m 6,3 km/h (2 Bft)
24.06.2015 10:36 13,1 C 12,2 C 87 % 0 lf 1022,0 hPa 0,0 l/m 0 min 0 min 105 W/m 8,4 km/h (2 Bft)
24.06.2015 10:38 13,2 C 12,2 C 87 % 0 lf 1022,0 hPa 0,0 l/m 0 min 0 min 106 W/m 6,3 km/h (2 Bft)
24.06.2015 10:40 13,2 C 12,2 C 86 % 0 lf 1022,0 hPa 0,0 l/m 0 min 0 min 111 W/m 6,3 km/h (2 Bft)
24.06.2015 10:42 13,2 C 12,2 C 86 % 0 lf 1021,9 hPa 0,0 l/m 0 min 0 min 117 W/m 2,1 km/h (1 Bft)
24.06.2015 10:44 13,2 C 12,2 C 86 % 0 lf 1022,0 hPa 0,0 l/m 0 min 0 min 118 W/m 6,3 km/h (2 Bft)
24.06.2015 10:46 13,2 C 12,2 C 86 % 0 lf 1021,9 hPa 0,0 l/m 0 min 0 min 122 W/m 10,5 km/h (2 Bft)
24.06.2015 10:48 13,2 C 12,2 C 86 % 0 lf 1021,9 hPa 0,0 l/m 0 min 0 min 121 W/m 4,2 km/h (1 Bft)
24.06.2015 10:50 13,2 C 12,2 C 86 % 0 lf 1022,0 hPa 0,0 l/m 0 min 0 min 125 W/m 8,4 km/h (2 Bft)
24.06.2015 10:52 13,2 C 12,2 C 86 % 0 lf 1021,9 hPa 0,0 l/m 0 min 0 min 134 W/m 12,6 km/h (3 Bft)
24.06.2015 10:54 13,2 C 12,2 C 86 % 0 lf 1022,0 hPa 0,0 l/m 0 min 0 min 139 W/m 12,6 km/h (3 Bft)
24.06.2015 10:56 13,2 C 12,2 C 86 % 0 lf 1022,0 hPa 0,0 l/m 0 min 0 min 141 W/m 12,6 km/h (3 Bft)
24.06.2015 10:58 13,2 C 12,2 C 86 % 0 lf 1022,0 hPa 0,0 l/m 0 min 0 min 151 W/m 14,6 km/h (3 Bft)
24.06.2015 11:00 13,2 C 12,8 C 86 % 0 lf 1022,0 hPa 0,0 l/m 0 min 0 min 168 W/m 12,6 km/h (3 Bft)
24.06.2015 11:02 13,3 C 12,8 C 86 % 0 lf 1022,0 hPa 0,0 l/m 0 min 0 min 177 W/m 14,6 km/h (3 Bft)
24.06.2015 11:04 13,3 C 12,8 C 85 % 0 lf 1022,0 hPa 0,0 l/m 0 min 0 min 175 W/m 14,6 km/h (3 Bft)
24.06.2015 11:06 13,3 C 12,8 C 85 % 0 lf 1022,0 hPa 0,0 l/m 0 min 0 min 172 W/m 12,6 km/h (3 Bft)
24.06.2015 11:08 13,3 C 12,8 C 85 % 0 lf 1022,0 hPa 0,0 l/m 0 min 0 min 165 W/m 16,7 km/h (3 Bft)
24.06.2015 11:10 13,3 C 12,8 C 85 % 0 lf 1022,0 hPa 0,0 l/m 0 min 0 min 151 W/m 10,5 km/h (2 Bft)
24.06.2015 11:12 13,4 C 12,8 C 85 % 0 lf 1022,0 hPa 0,0 l/m 0 min 0 min 145 W/m 10,5 km/h (2 Bft)
24.06.2015 11:14 13,4 C 12,8 C 85 % 0 lf 1022,0 hPa 0,0 l/m 0 min 0 min 155 W/m 10,5 km/h (2 Bft)
24.06.2015 11:16 13,4 C 12,8 C 85 % 0 lf 1022,0 hPa 0,0 l/m 0 min 0 min 176 W/m 8,4 km/h (2 Bft)
24.06.2015 11:18 13,4 C 12,8 C 85 % 0 lf 1022,0 hPa 0,0 l/m 0 min 0 min 194 W/m 12,6 km/h (3 Bft)
24.06.2015 11:20 13,5 C 13,3 C 85 % 0 lf 1022,0 hPa 0,0 l/m 0 min 0 min 211 W/m 8,4 km/h (2 Bft)
24.06.2015 11:22 13,6 C 13,3 C 85 % 0 lf 1022,0 hPa 0,0 l/m 0 min 0 min 227 W/m 10,5 km/h (2 Bft)
24.06.2015 11:24 13,6 C 13,3 C 85 % 0 lf 1022,0 hPa 0,0 l/m 0 min 0 min 246 W/m 8,4 km/h (2 Bft)
24.06.2015 11:26 13,7 C 13,9 C 85 % 0 lf 1022,0 hPa 0,0 l/m 0 min 0 min 260 W/m 14,6 km/h (3 Bft)
24.06.2015 11:28 13,7 C 13,9 C 85 % 0 lf 1022,0 hPa 0,0 l/m 0 min 0 min 260 W/m 16,7 km/h (3 Bft)
24.06.2015 11:30 13,8 C 13,9 C 84 % 0 lf 1022,0 hPa 0,0 l/m 0 min 0 min 262 W/m 14,6 km/h (3 Bft)
24.06.2015 11:32 13,8 C 13,9 C 84 % 0 lf 1022,0 hPa 0,0 l/m 0 min 0 min 271 W/m 8,4 km/h (2 Bft)
24.06.2015 11:34 13,8 C 13,9 C 83 % 0 lf 1022,0 hPa 0,0 l/m 0 min 0 min 262 W/m 10,5 km/h (2 Bft)
24.06.2015 11:36 13,9 C 13,9 C 83 % 0 lf 1022,0 hPa 0,0 l/m 0 min 0 min 238 W/m 10,5 km/h (2 Bft)
24.06.2015 11:38 13,9 C 13,9 C 82 % 0 lf 1022,0 hPa 0,0 l/m 0 min 0 min 221 W/m 8,4 km/h (2 Bft)
24.06.2015 11:40 14,0 C 13,9 C 82 % 0 lf 1022,1 hPa 0,0 l/m 0 min 0 min 214 W/m 8,4 km/h (2 Bft)
24.06.2015 11:42 14,1 C 13,9 C 83 % 0 lf 1022,0 hPa 0,0 l/m 0 min 0 min 214 W/m 16,7 km/h (3 Bft)
24.06.2015 11:44 14,1 C 13,3 C 82 % 0 lf 1022,0 hPa 0,0 l/m 0 min 0 min 210 W/m 14,6 km/h (3 Bft)
24.06.2015 11:46 14,2 C 13,3 C 81 % 0 lf 1022,0 hPa 0,0 l/m 0 min 0 min 198 W/m 14,6 km/h (3 Bft)
24.06.2015 11:48 14,2 C 13,3 C 81 % 0 lf 1022,1 hPa 0,0 l/m 0 min 0 min 201 W/m 10,5 km/h (2 Bft)
24.06.2015 11:50 14,2 C 13,9 C 81 % 0 lf 1022,1 hPa 0,0 l/m 0 min 0 min 206 W/m 10,5 km/h (2 Bft)
24.06.2015 11:52 14,2 C 13,9 C 81 % 0 lf 1022,1 hPa 0,0 l/m 0 min 0 min 216 W/m 8,4 km/h (2 Bft)
24.06.2015 11:54 14,2 C 13,9 C 82 % 0 lf 1022,1 hPa 0,0 l/m 0 min 0 min 239 W/m 12,6 km/h (3 Bft)
24.06.2015 11:56 14,2 C 13,9 C 81 % 0 lf 1022,1 hPa 0,0 l/m 0 min 0 min 270 W/m 14,6 km/h (3 Bft)
24.06.2015 11:58 14,2 C 13,9 C 81 % 0 lf 1022,1 hPa 0,0 l/m 0 min 0 min 302 W/m 10,5 km/h (2 Bft)
24.06.2015 12:00 14,2 C 14,4 C 81 % 0 lf 1022,1 hPa 0,0 l/m 0 min 0 min 330 W/m 12,6 km/h (3 Bft)
24.06.2015 12:03 14,4 C 15,0 C 81 % 0 lf 1022,1 hPa 0,0 l/m 0 min 0 min 373 W/m 8,4 km/h (2 Bft)
24.06.2015 12:05 14,6 C 15,0 C 81 % 0 lf 1022,1 hPa 0,0 l/m 0 min 0 min 336 W/m 10,5 km/h (2 Bft)
24.06.2015 12:06 14,6 C 15,0 C 81 % 0 lf 1022,1 hPa 0,0 l/m 0 min 0 min 356 W/m 10,5 km/h (2 Bft)
24.06.2015 12:08 14,7 C 15,0 C 81 % 0 lf 1022,2 hPa 0,0 l/m 0 min 0 min 328 W/m 6,3 km/h (2 Bft)
24.06.2015 12:10 14,8 C 15,0 C 82 % 0 lf 1022,2 hPa 0,0 l/m 0 min 0 min 322 W/m 4,2 km/h (1 Bft)
24.06.2015 12:12 14,8 C 15,0 C 81 % 0 lf 1022,1 hPa 0,0 l/m 0 min 0 min 324 W/m 14,6 km/h (3 Bft)
24.06.2015 12:14 14,8 C 15,0 C 80 % 0 lf 1022,1 hPa 0,0 l/m 0 min 0 min 330 W/m 12,6 km/h (3 Bft)
24.06.2015 12:16 14,9 C 15,0 C 80 % 0 lf 1022,1 hPa 0,0 l/m 0 min 0 min 339 W/m 8,4 km/h (2 Bft)
24.06.2015 12:18 14,9 C 15,0 C 79 % 0 lf 1022,1 hPa 0,0 l/m 0 min 0 min 352 W/m 14,6 km/h (3 Bft)
24.06.2015 12:20 15,1 C 15,0 C 79 % 0 lf 1022,0 hPa 0,0 l/m 0 min 0 min 377 W/m 8,4 km/h (2 Bft)
24.06.2015 12:22 15,1 C 15,0 C 79 % 0 lf 1022,1 hPa 0,0 l/m 0 min 0 min 347 W/m 10,5 km/h (2 Bft)
24.06.2015 12:24 15,2 C 15,0 C 78 % 0 lf 1022,2 hPa 0,0 l/m 0 min 0 min 321 W/m 10,5 km/h (2 Bft)
24.06.2015 12:26 15,2 C 15,0 C 78 % 0 lf 1022,1 hPa 0,0 l/m 0 min 0 min 332 W/m 8,4 km/h (2 Bft)
24.06.2015 12:28 15,3 C 15,0 C 78 % 0 lf 1022,1 hPa 0,0 l/m 0 min 0 min 368 W/m 8,4 km/h (2 Bft)
24.06.2015 12:30 15,3 C 15,6 C 78 % 0 lf 1022,1 hPa 0,0 l/m 0 min 0 min 381 W/m 10,5 km/h (2 Bft)
24.06.2015 12:32 15,4 C 15,0 C 78 % 0 lf 1022,2 hPa 0,0 l/m 0 min 0 min 361 W/m 12,6 km/h (3 Bft)
24.06.2015 12:34 15,4 C 15,0 C 78 % 0 lf 1022,1 hPa 0,0 l/m 0 min 0 min 340 W/m 8,4 km/h (2 Bft)
24.06.2015 12:36 15,4 C 15,0 C 77 % 0 lf 1022,2 hPa 0,0 l/m 0 min 0 min 321 W/m 8,4 km/h (2 Bft)
24.06.2015 12:38 15,5 C 15,0 C 77 % 0 lf 1022,2 hPa 0,0 l/m 0 min 0 min 335 W/m 4,2 km/h (1 Bft)
24.06.2015 12:40 15,6 C 15,6 C 77 % 0 lf 1022,2 hPa 0,0 l/m 0 min 0 min 378 W/m 12,6 km/h (3 Bft)
24.06.2015 12:42 15,6 C 15,6 C 77 % 0 lf 1022,1 hPa 0,0 l/m 0 min 0 min 398 W/m 16,7 km/h (3 Bft)
24.06.2015 12:44 15,7 C 15,6 C 76 % 0 lf 1022,1 hPa 0,0 l/m 0 min 0 min 407 W/m 14,6 km/h (3 Bft)
24.06.2015 12:46 15,7 C 16,1 C 76 % 0 lf 1022,1 hPa 0,0 l/m 2 min 0 min 427 W/m 8,4 km/h (2 Bft)
24.06.2015 12:48 15,8 C 16,1 C 77 % 0 lf 1022,1 hPa 0,0 l/m 2 min 0 min 475 W/m 16,7 km/h (3 Bft)
24.06.2015 12:50 15,9 C 16,7 C 76 % 0 lf 1022,1 hPa 0,0 l/m 2 min 0 min 511 W/m 14,6 km/h (3 Bft)
24.06.2015 12:52 16,0 C 16,1 C 76 % 0 lf 1022,1 hPa 0,0 l/m 2 min 0 min 449 W/m 12,6 km/h (3 Bft)
24.06.2015 12:54 16,1 C 16,1 C 75 % 0 lf 1022,1 hPa 0,0 l/m 2 min 0 min 444 W/m 10,5 km/h (2 Bft)
24.06.2015 12:56 16,1 C 16,1 C 75 % 0 lf 1022,1 hPa 0,0 l/m 2 min 0 min 421 W/m 14,6 km/h (3 Bft)
24.06.2015 12:58 16,2 C 16,1 C 75 % 0 lf 1022,1 hPa 0,0 l/m 0 min 0 min 404 W/m 10,5 km/h (2 Bft)
24.06.2015 13:00 16,3 C 16,1 C 74 % 0 lf 1022,1 hPa 0,0 l/m 0 min 0 min 412 W/m 6,3 km/h (2 Bft)
24.06.2015 13:02 16,3 C 16,1 C 74 % 0 lf 1022,1 hPa 0,0 l/m 0 min 0 min 369 W/m 12,6 km/h (3 Bft)
24.06.2015 13:04 16,4 C 15,6 C 73 % 0 lf 1022,1 hPa 0,0 l/m 0 min 0 min 340 W/m 6,3 km/h (2 Bft)
24.06.2015 13:06 16,4 C 15,6 C 72 % 0 lf 1022,1 hPa 0,0 l/m 0 min 0 min 332 W/m 10,5 km/h (2 Bft)
24.06.2015 13:08 16,4 C 15,6 C 72 % 0 lf 1022,1 hPa 0,0 l/m 0 min 0 min 335 W/m 12,6 km/h (3 Bft)
24.06.2015 13:10 16,4 C 15,6 C 73 % 0 lf 1022,1 hPa 0,0 l/m 0 min 0 min 340 W/m 8,4 km/h (2 Bft)
24.06.2015 13:12 16,5 C 15,6 C 73 % 0 lf 1022,1 hPa 0,0 l/m 0 min 0 min 329 W/m 14,6 km/h (3 Bft)
24.06.2015 13:14 16,5 C 15,6 C 73 % 0 lf 1022,1 hPa 0,0 l/m 0 min 0 min 330 W/m 8,4 km/h (2 Bft)
24.06.2015 13:16 16,5 C 15,6 C 74 % 0 lf 1022,1 hPa 0,0 l/m 0 min 0 min 339 W/m 12,6 km/h (3 Bft)
24.06.2015 13:18 16,6 C 15,6 C 74 % 0 lf 1022,1 hPa 0,0 l/m 0 min 0 min 346 W/m 16,7 km/h (3 Bft)
24.06.2015 13:20 16,6 C 16,1 C 75 % 0 lf 1022,1 hPa 0,0 l/m 0 min 0 min 330 W/m 8,4 km/h (2 Bft)
24.06.2015 13:22 16,6 C 15,6 C 74 % 0 lf 1022,1 hPa 0,0 l/m 0 min 0 min 311 W/m 8,4 km/h (2 Bft)
24.06.2015 13:24 16,6 C 15,6 C 74 % 0 lf 1022,0 hPa 0,0 l/m 0 min 0 min 313 W/m 4,2 km/h (1 Bft)
24.06.2015 13:26 16,6 C 15,6 C 74 % 0 lf 1022,0 hPa 0,0 l/m 0 min 0 min 316 W/m 12,6 km/h (3 Bft)
24.06.2015 13:28 16,6 C 15,6 C 73 % 0 lf 1022,1 hPa 0,0 l/m 0 min 0 min 320 W/m 10,5 km/h (2 Bft)
24.06.2015 13:30 16,7 C 16,1 C 74 % 0 lf 1022,0 hPa 0,0 l/m 0 min 0 min 325 W/m 12,6 km/h (3 Bft)
24.06.2015 13:32 16,7 C 16,1 C 74 % 0 lf 1022,1 hPa 0,0 l/m 0 min 0 min 355 W/m 10,5 km/h (2 Bft)
24.06.2015 13:34 16,7 C 16,1 C 73 % 0 lf 1022,1 hPa 0,0 l/m 0 min 0 min 403 W/m 12,6 km/h (3 Bft)
24.06.2015 13:36 16,7 C 16,7 C 74 % 0 lf 1022,1 hPa 0,0 l/m 2 min 0 min 465 W/m 6,3 km/h (2 Bft)
24.06.2015 13:38 16,8 C 16,7 C 74 % 0 lf 1022,0 hPa 0,0 l/m 2 min 0 min 492 W/m 12,6 km/h (3 Bft)
24.06.2015 13:40 16,8 C 17,2 C 74 % 0 lf 1022,0 hPa 0,0 l/m 2 min 0 min 490 W/m 8,4 km/h (2 Bft)
24.06.2015 13:42 16,9 C 17,2 C 75 % 0 lf 1022,0 hPa 0,0 l/m 2 min 0 min 452 W/m 10,5 km/h (2 Bft)
24.06.2015 13:44 17,0 C 17,2 C 75 % 0 lf 1022,1 hPa 0,0 l/m 2 min 0 min 430 W/m 10,5 km/h (2 Bft)
24.06.2015 13:46 17,1 C 17,2 C 74 % 0 lf 1022,0 hPa 0,0 l/m 2 min 0 min 494 W/m 12,6 km/h (3 Bft)
24.06.2015 13:48 17,2 C 17,2 C 74 % 0 lf 1022,0 hPa 0,0 l/m 2 min 0 min 446 W/m 12,6 km/h (3 Bft)
24.06.2015 13:50 17,3 C 17,2 C 74 % 0 lf 1022,1 hPa 0,0 l/m 2 min 0 min 427 W/m 16,7 km/h (3 Bft)
24.06.2015 13:52 17,3 C 17,2 C 73 % 0 lf 1022,1 hPa 0,0 l/m 2 min 0 min 440 W/m 10,5 km/h (2 Bft)
24.06.2015 13:54 17,4 C 17,2 C 72 % 0 lf 1022,0 hPa 0,0 l/m 2 min 0 min 747 W/m 8,4 km/h (2 Bft)
24.06.2015 13:56 17,5 C 17,2 C 73 % 0 lf 1022,0 hPa 0,0 l/m 2 min 0 min 992 W/m 12,6 km/h (3 Bft)
24.06.2015 13:58 17,7 C 17,8 C 74 % 0 lf 1022,1 hPa 0,0 l/m 2 min 0 min 977 W/m 10,5 km/h (2 Bft)
24.06.2015 14:00 17,9 C 17,8 C 73 % 0 lf 1022,0 hPa 0,0 l/m 2 min 0 min 1029 W/m 8,4 km/h (2 Bft)
24.06.2015 14:02 18,1 C 17,8 C 71 % 0 lf 1022,0 hPa 0,0 l/m 2 min 0 min 945 W/m 10,5 km/h (2 Bft)
24.06.2015 14:04 18,1 C 17,8 C 70 % 0 lf 1022,0 hPa 0,0 l/m 2 min 0 min 575 W/m 14,6 km/h (3 Bft)
24.06.2015 14:06 18,2 C 17,8 C 68 % 0 lf 1022,0 hPa 0,0 l/m 2 min 0 min 582 W/m 12,6 km/h (3 Bft)
24.06.2015 14:08 18,2 C 18,3 C 69 % 0 lf 1022,0 hPa 0,0 l/m 2 min 0 min 608 W/m 12,6 km/h (3 Bft)
24.06.2015 14:10 18,3 C 18,9 C 70 % 0 lf 1022,0 hPa 0,0 l/m 2 min 0 min 958 W/m 14,6 km/h (3 Bft)
24.06.2015 14:12 18,3 C 18,3 C 69 % 0 lf 1022,0 hPa 0,0 l/m 2 min 0 min 515 W/m 12,6 km/h (3 Bft)
24.06.2015 14:14 18,4 C 18,3 C 69 % 0 lf 1021,9 hPa 0,0 l/m 2 min 0 min 434 W/m 14,6 km/h (3 Bft)
24.06.2015 14:16 18,4 C 17,8 C 69 % 0 lf 1021,9 hPa 0,0 l/m 0 min 0 min 402 W/m 12,6 km/h (3 Bft)
24.06.2015 14:18 18,4 C 17,8 C 68 % 0 lf 1021,9 hPa 0,0 l/m 2 min 0 min 453 W/m 14,6 km/h (3 Bft)
24.06.2015 14:20 18,6 C 18,3 C 69 % 0 lf 1021,9 hPa 0,0 l/m 2 min 0 min 976 W/m 12,6 km/h (3 Bft)
24.06.2015 14:22 18,6 C 17,8 C 69 % 0 lf 1021,9 hPa 0,0 l/m 2 min 0 min 554 W/m 10,5 km/h (2 Bft)
24.06.2015 14:24 18,7 C 17,8 C 69 % 0 lf 1021,9 hPa 0,0 l/m 0 min 0 min 363 W/m 10,5 km/h (2 Bft)
24.06.2015 14:26 18,7 C 17,8 C 68 % 0 lf 1021,9 hPa 0,0 l/m 0 min 0 min 363 W/m 12,6 km/h (3 Bft)
24.06.2015 14:28 18,7 C 17,8 C 67 % 0 lf 1022,0 hPa 0,0 l/m 0 min 0 min 403 W/m 10,5 km/h (2 Bft)
24.06.2015 14:30 18,7 C 17,8 C 67 % 0 lf 1022,0 hPa 0,0 l/m 0 min 0 min 408 W/m 8,4 km/h (2 Bft)
24.06.2015 14:32 18,7 C 17,2 C 66 % 0 lf 1022,0 hPa 0,0 l/m 0 min 0 min 343 W/m 12,6 km/h (3 Bft)
24.06.2015 14:34 18,7 C 17,2 C 67 % 0 lf 1021,9 hPa 0,0 l/m 0 min 0 min 302 W/m 12,6 km/h (3 Bft)
24.06.2015 14:36 18,6 C 17,2 C 65 % 0 lf 1021,9 hPa 0,0 l/m 0 min 0 min 268 W/m 6,3 km/h (2 Bft)
24.06.2015 14:38 18,6 C 17,2 C 66 % 0 lf 1021,9 hPa 0,0 l/m 0 min 0 min 258 W/m 8,4 km/h (2 Bft)
24.06.2015 14:40 18,6 C 17,2 C 67 % 0 lf 1021,9 hPa 0,0 l/m 0 min 0 min 316 W/m 12,6 km/h (3 Bft)
24.06.2015 14:42 18,6 C 17,8 C 67 % 0 lf 1021,9 hPa 0,0 l/m 2 min 0 min 835 W/m 10,5 km/h (2 Bft)
24.06.2015 14:44 18,6 C 18,3 C 69 % 0 lf 1021,9 hPa 0,0 l/m 2 min 0 min 858 W/m 10,5 km/h (2 Bft)
24.06.2015 14:46 18,7 C 18,3 C 68 % 0 lf 1021,9 hPa 0,0 l/m 2 min 0 min 556 W/m 16,7 km/h (3 Bft)
24.06.2015 14:48 18,7 C 18,9 C 67 % 0 lf 1021,9 hPa 0,0 l/m 2 min 0 min 469 W/m 16,7 km/h (3 Bft)
24.06.2015 14:50 18,9 C 19,4 C 70 % 0 lf 1021,9 hPa 0,0 l/m 2 min 0 min 469 W/m 12,6 km/h (3 Bft)
24.06.2015 14:52 19,1 C 19,4 C 70 % 0 lf 1021,9 hPa 0,0 l/m 2 min 0 min 989 W/m 14,6 km/h (3 Bft)
24.06.2015 14:54 19,2 C 19,4 C 68 % 0 lf 1021,9 hPa 0,0 l/m 2 min 0 min 1093 W/m 18,8 km/h (3 Bft)
24.06.2015 14:56 19,3 C 19,4 C 66 % 0 lf 1021,9 hPa 0,0 l/m 2 min 0 min 1093 W/m 18,8 km/h (3 Bft)
24.06.2015 14:58 19,4 C 19,4 C 68 % 0 lf 1021,9 hPa 0,0 l/m 2 min 0 min 1093 W/m 10,5 km/h (2 Bft)
24.06.2015 15:00 19,6 C 19,4 C 67 % 0 lf 1021,9 hPa 0,0 l/m 2 min 0 min 1025 W/m 12,6 km/h (3 Bft)
24.06.2015 15:02 19,7 C 19,4 C 68 % 0 lf 1021,9 hPa 0,0 l/m 2 min 0 min 994 W/m 14,6 km/h (3 Bft)
24.06.2015 15:04 19,8 C 19,4 C 67 % 0 lf 1021,9 hPa 0,0 l/m 2 min 0 min 990 W/m 14,6 km/h (3 Bft)
24.06.2015 15:06 19,9 C 18,9 C 66 % 0 lf 1021,9 hPa 0,0 l/m 0 min 0 min 307 W/m 12,6 km/h (3 Bft)
24.06.2015 15:08 19,9 C 18,3 C 65 % 0 lf 1021,8 hPa 0,0 l/m 0 min 0 min 338 W/m 14,6 km/h (3 Bft)
24.06.2015 15:10 19,9 C 18,3 C 65 % 0 lf 1021,8 hPa 0,0 l/m 0 min 0 min 335 W/m 10,5 km/h (2 Bft)
24.06.2015 15:12 19,9 C 18,3 C 65 % 0 lf 1021,8 hPa 0,0 l/m 0 min 0 min 378 W/m 14,6 km/h (3 Bft)
24.06.2015 15:14 19,9 C 18,9 C 67 % 0 lf 1021,7 hPa 0,0 l/m 0 min 0 min 353 W/m 12,6 km/h (3 Bft)
24.06.2015 15:16 20,1 C 18,9 C 68 % 0 lf 1021,6 hPa 0,0 l/m 2 min 0 min 857 W/m 12,6 km/h (3 Bft)
24.06.2015 15:18 20,1 C 19,4 C 66 % 0 lf 1021,6 hPa 0,0 l/m 2 min 0 min 863 W/m 10,5 km/h (2 Bft)
24.06.2015 15:20 20,2 C 18,9 C 64 % 0 lf 1021,6 hPa 0,0 l/m 2 min 0 min 867 W/m 8,4 km/h (2 Bft)
24.06.2015 15:22 20,2 C 18,9 C 64 % 0 lf 1021,6 hPa 0,0 l/m 2 min 0 min 873 W/m 16,7 km/h (3 Bft)
24.06.2015 15:24 20,3 C 19,4 C 66 % 0 lf 1021,6 hPa 0,0 l/m 2 min 0 min 876 W/m 14,6 km/h (3 Bft)
24.06.2015 15:26 20,4 C 19,4 C 66 % 0 lf 1021,6 hPa 0,0 l/m 2 min 0 min 885 W/m 14,6 km/h (3 Bft)
24.06.2015 15:28 20,5 C 18,9 C 64 % 0 lf 1021,6 hPa 0,0 l/m 2 min 0 min 904 W/m 14,6 km/h (3 Bft)
24.06.2015 15:30 20,6 C 19,4 C 63 % 0 lf 1021,5 hPa 0,0 l/m 0 min 0 min 313 W/m 10,5 km/h (2 Bft)
24.06.2015 15:32 20,6 C 19,4 C 63 % 0 lf 1021,6 hPa 0,0 l/m 2 min 0 min 784 W/m 8,4 km/h (2 Bft)
24.06.2015 15:34 20,7 C 20,0 C 64 % 0 lf 1021,6 hPa 0,0 l/m 2 min 0 min 897 W/m 12,6 km/h (3 Bft)
24.06.2015 15:36 20,9 C 20,0 C 65 % 0 lf 1021,5 hPa 0,0 l/m 2 min 0 min 931 W/m 8,4 km/h (2 Bft)
24.06.2015 15:38 20,9 C 20,6 C 61 % 0 lf 1021,5 hPa 0,0 l/m 2 min 0 min 933 W/m 16,7 km/h (3 Bft)
24.06.2015 15:40 21,0 C 20,0 C 62 % 0 lf 1021,5 hPa 0,0 l/m 2 min 0 min 907 W/m 23,0 km/h (4 Bft)
24.06.2015 15:42 21,1 C 20,0 C 62 % 0 lf 1021,5 hPa 0,0 l/m 2 min 0 min 907 W/m 14,6 km/h (3 Bft)
24.06.2015 15:44 21,1 C 19,4 C 62 % 0 lf 1021,4 hPa 0,0 l/m 2 min 0 min 697 W/m 16,7 km/h (3 Bft)
24.06.2015 15:46 21,1 C 19,4 C 60 % 0 lf 1021,4 hPa 0,0 l/m 2 min 0 min 588 W/m 23,0 km/h (4 Bft)
24.06.2015 15:48 21,1 C 19,4 C 60 % 0 lf 1021,3 hPa 0,0 l/m 2 min 0 min 838 W/m 6,3 km/h (2 Bft)
24.06.2015 15:50 21,1 C 19,4 C 59 % 0 lf 1021,3 hPa 0,0 l/m 2 min 0 min 587 W/m 14,6 km/h (3 Bft)
24.06.2015 15:52 21,1 C 19,4 C 60 % 0 lf 1021,3 hPa 0,0 l/m 2 min 0 min 643 W/m 14,6 km/h (3 Bft)
24.06.2015 15:54 21,1 C 20,0 C 61 % 0 lf 1021,3 hPa 0,0 l/m 2 min 0 min 581 W/m 14,6 km/h (3 Bft)
24.06.2015 15:56 21,0 C 20,0 C 60 % 0 lf 1021,3 hPa 0,0 l/m 2 min 0 min 568 W/m 23,0 km/h (4 Bft)
24.06.2015 15:58 21,0 C 20,0 C 62 % 0 lf 1021,2 hPa 0,0 l/m 2 min 0 min 707 W/m 18,8 km/h (3 Bft)
24.06.2015 16:00 21,0 C 20,0 C 61 % 0 lf 1021,2 hPa 0,0 l/m 2 min 0 min 722 W/m 14,6 km/h (3 Bft)
24.06.2015 16:02 21,0 C 20,6 C 60 % 0 lf 1021,3 hPa 0,0 l/m 2 min 0 min 771 W/m 18,8 km/h (3 Bft)
24.06.2015 16:04 21,0 C 20,6 C 60 % 0 lf 1021,3 hPa 0,0 l/m 2 min 0 min 715 W/m 18,8 km/h (3 Bft)
24.06.2015 16:06 21,0 C 20,6 C 62 % 0 lf 1021,3 hPa 0,0 l/m 2 min 0 min 666 W/m 14,6 km/h (3 Bft)
24.06.2015 16:08 21,1 C 20,6 C 62 % 0 lf 1021,3 hPa 0,0 l/m 2 min 0 min 370 W/m 14,6 km/h (3 Bft)
24.06.2015 16:10 21,1 C 20,6 C 60 % 0 lf 1021,2 hPa 0,0 l/m 2 min 0 min 652 W/m 12,6 km/h (3 Bft)
24.06.2015 16:12 21,1 C 20,6 C 62 % 0 lf 1021,2 hPa 0,0 l/m 2 min 0 min 775 W/m 10,5 km/h (2 Bft)
24.06.2015 16:14 21,2 C 21,1 C 62 % 0 lf 1021,2 hPa 0,0 l/m 2 min 0 min 827 W/m 14,6 km/h (3 Bft)
24.06.2015 16:16 21,2 C 21,1 C 62 % 0 lf 1021,2 hPa 0,0 l/m 2 min 0 min 815 W/m 10,5 km/h (2 Bft)
24.06.2015 16:18 21,3 C 21,1 C 61 % 0 lf 1021,1 hPa 0,0 l/m 2 min 0 min 786 W/m 10,5 km/h (2 Bft)
24.06.2015 16:20 21,3 C 21,1 C 63 % 0 lf 1021,1 hPa 0,0 l/m 2 min 0 min 667 W/m 12,6 km/h (3 Bft)
24.06.2015 16:22 21,3 C 20,6 C 59 % 0 lf 1021,1 hPa 0,0 l/m 2 min 0 min 525 W/m 14,6 km/h (3 Bft)
24.06.2015 16:24 21,3 C 20,6 C 61 % 0 lf 1021,1 hPa 0,0 l/m 2 min 0 min 653 W/m 14,6 km/h (3 Bft)
24.06.2015 16:26 21,3 C 21,1 C 62 % 0 lf 1021,0 hPa 0,0 l/m 2 min 0 min 820 W/m 8,4 km/h (2 Bft)
24.06.2015 16:28 21,3 C 21,1 C 62 % 0 lf 1021,0 hPa 0,0 l/m 2 min 0 min 837 W/m 14,6 km/h (3 Bft)
24.06.2015 16:30 21,4 C 20,6 C 61 % 0 lf 1021,0 hPa 0,0 l/m 2 min 0 min 455 W/m 14,6 km/h (3 Bft)
24.06.2015 16:32 21,3 C 20,0 C 59 % 0 lf 1021,1 hPa 0,0 l/m 0 min 0 min 309 W/m 16,7 km/h (3 Bft)
24.06.2015 16:34 21,3 C 20,0 C 60 % 0 lf 1021,1 hPa 0,0 l/m 2 min 0 min 585 W/m 14,6 km/h (3 Bft)
24.06.2015 16:36 21,3 C 20,6 C 61 % 0 lf 1021,1 hPa 0,0 l/m 2 min 0 min 762 W/m 14,6 km/h (3 Bft)
24.06.2015 16:38 21,4 C 20,6 C 62 % 0 lf 1021,1 hPa 0,0 l/m 2 min 0 min 751 W/m 16,7 km/h (3 Bft)
24.06.2015 16:40 21,4 C 20,6 C 60 % 0 lf 1021,2 hPa 0,0 l/m 2 min 0 min 745 W/m 20,9 km/h (4 Bft)
24.06.2015 16:42 21,4 C 20,6 C 60 % 0 lf 1021,2 hPa 0,0 l/m 2 min 0 min 726 W/m 18,8 km/h (3 Bft)
24.06.2015 16:44 21,4 C 20,6 C 61 % 0 lf 1021,2 hPa 0,0 l/m 2 min 0 min 726 W/m 14,6 km/h (3 Bft)
24.06.2015 16:46 21,5 C 20,6 C 60 % 0 lf 1021,1 hPa 0,0 l/m 2 min 0 min 724 W/m 12,6 km/h (3 Bft)
24.06.2015 16:48 21,5 C 20,6 C 60 % 0 lf 1021,1 hPa 0,0 l/m 2 min 0 min 712 W/m 14,6 km/h (3 Bft)
24.06.2015 16:50 21,6 C 20,6 C 61 % 0 lf 1021,1 hPa 0,0 l/m 2 min 0 min 696 W/m 14,6 km/h (3 Bft)
24.06.2015 16:52 21,6 C 20,6 C 61 % 0 lf 1021,0 hPa 0,0 l/m 2 min 0 min 673 W/m 12,6 km/h (3 Bft)
24.06.2015 16:54 21,7 C 20,0 C 59 % 0 lf 1020,9 hPa 0,0 l/m 2 min 0 min 687 W/m 12,6 km/h (3 Bft)
24.06.2015 16:56 21,7 C 20,6 C 60 % 0 lf 1020,9 hPa 0,0 l/m 2 min 0 min 708 W/m 14,6 km/h (3 Bft)
24.06.2015 16:58 21,8 C 20,6 C 61 % 0 lf 1020,9 hPa 0,0 l/m 2 min 0 min 701 W/m 20,9 km/h (4 Bft)
24.06.2015 17:00 21,8 C 20,0 C 59 % 0 lf 1021,0 hPa 0,0 l/m 2 min 0 min 691 W/m 20,9 km/h (4 Bft)
24.06.2015 17:02 21,8 C 20,6 C 58 % 0 lf 1021,0 hPa 0,0 l/m 2 min 0 min 663 W/m 14,6 km/h (3 Bft)
24.06.2015 17:04 21,8 C 20,0 C 59 % 0 lf 1021,0 hPa 0,0 l/m 2 min 0 min 504 W/m 14,6 km/h (3 Bft)
24.06.2015 17:06 21,8 C 19,4 C 59 % 0 lf 1021,0 hPa 0,0 l/m 0 min 0 min 199 W/m 14,6 km/h (3 Bft)
24.06.2015 17:08 21,8 C 19,4 C 59 % 0 lf 1020,9 hPa 0,0 l/m 0 min 0 min 202 W/m 12,6 km/h (3 Bft)
24.06.2015 17:10 21,8 C 19,4 C 59 % 0 lf 1020,9 hPa 0,0 l/m 2 min 0 min 485 W/m 12,6 km/h (3 Bft)
24.06.2015 17:12 21,8 C 20,0 C 60 % 0 lf 1021,0 hPa 0,0 l/m 2 min 0 min 647 W/m 16,7 km/h (3 Bft)
24.06.2015 17:14 21,8 C 20,0 C 60 % 0 lf 1020,9 hPa 0,0 l/m 2 min 0 min 659 W/m 18,8 km/h (3 Bft)
24.06.2015 17:16 21,8 C 19,4 C 58 % 0 lf 1020,9 hPa 0,0 l/m 2 min 0 min 660 W/m 16,7 km/h (3 Bft)
24.06.2015 17:18 21,8 C 19,4 C 59 % 0 lf 1020,9 hPa 0,0 l/m 2 min 0 min 639 W/m 10,5 km/h (2 Bft)
24.06.2015 17:20 21,8 C 19,4 C 59 % 0 lf 1021,0 hPa 0,0 l/m 2 min 0 min 626 W/m 12,6 km/h (3 Bft)
24.06.2015 17:22 21,8 C 19,4 C 59 % 0 lf 1020,9 hPa 0,0 l/m 2 min 0 min 592 W/m 10,5 km/h (2 Bft)
24.06.2015 17:24 21,8 C 19,4 C 58 % 0 lf 1020,9 hPa 0,0 l/m 2 min 0 min 595 W/m 4,2 km/h (1 Bft)
24.06.2015 17:26 21,8 C 19,4 C 58 % 0 lf 1020,9 hPa 0,0 l/m 2 min 0 min 604 W/m 8,4 km/h (2 Bft)
24.06.2015 17:28 21,8 C 19,4 C 60 % 0 lf 1020,8 hPa 0,0 l/m 2 min 0 min 613 W/m 12,6 km/h (3 Bft)
24.06.2015 17:30 21,8 C 19,4 C 59 % 0 lf 1020,8 hPa 0,0 l/m 2 min 0 min 612 W/m 8,4 km/h (2 Bft)
24.06.2015 17:32 21,8 C 19,4 C 59 % 0 lf 1020,7 hPa 0,0 l/m 2 min 0 min 609 W/m 6,3 km/h (2 Bft)
24.06.2015 17:34 21,8 C 19,4 C 59 % 0 lf 1020,8 hPa 0,0 l/m 2 min 0 min 565 W/m 10,5 km/h (2 Bft)
24.06.2015 17:36 21,8 C 19,4 C 59 % 0 lf 1020,8 hPa 0,0 l/m 2 min 0 min 540 W/m 12,6 km/h (3 Bft)
24.06.2015 17:38 21,8 C 19,4 C 59 % 0 lf 1020,7 hPa 0,0 l/m 2 min 0 min 571 W/m 16,7 km/h (3 Bft)
24.06.2015 17:40 21,7 C 19,4 C 59 % 0 lf 1020,7 hPa 0,0 l/m 2 min 0 min 577 W/m 12,6 km/h (3 Bft)
24.06.2015 17:42 21,7 C 19,4 C 60 % 0 lf 1020,7 hPa 0,0 l/m 2 min 0 min 570 W/m 10,5 km/h (2 Bft)
24.06.2015 17:44 21,7 C 19,4 C 60 % 0 lf 1020,8 hPa 0,0 l/m 2 min 0 min 569 W/m 16,7 km/h (3 Bft)
24.06.2015 17:46 21,8 C 19,4 C 59 % 0 lf 1020,8 hPa 0,0 l/m 2 min 0 min 552 W/m 16,7 km/h (3 Bft)
24.06.2015 17:48 21,8 C 18,9 C 58 % 0 lf 1020,8 hPa 0,0 l/m 2 min 0 min 533 W/m 14,6 km/h (3 Bft)
24.06.2015 17:50 21,7 C 18,9 C 59 % 0 lf 1020,7 hPa 0,0 l/m 0 min 0 min 183 W/m 10,5 km/h (2 Bft)
24.06.2015 17:52 21,7 C 18,9 C 59 % 0 lf 1020,8 hPa 0,0 l/m 2 min 0 min 441 W/m 10,5 km/h (2 Bft)
24.06.2015 17:54 21,7 C 18,9 C 58 % 0 lf 1020,7 hPa 0,0 l/m 2 min 0 min 525 W/m 16,7 km/h (3 Bft)
24.06.2015 17:56 21,6 C 18,9 C 58 % 0 lf 1020,8 hPa 0,0 l/m 2 min 0 min 300 W/m 14,6 km/h (3 Bft)
24.06.2015 17:58 21,6 C 18,9 C 58 % 0 lf 1020,8 hPa 0,0 l/m 2 min 0 min 494 W/m 12,6 km/h (3 Bft)
24.06.2015 18:00 21,6 C 18,9 C 58 % 0 lf 1020,8 hPa 0,0 l/m 2 min 0 min 441 W/m 10,5 km/h (2 Bft)
24.06.2015 18:03 21,5 C 18,9 C 60 % 0 lf 1020,8 hPa 0,0 l/m 2 min 0 min 513 W/m 14,6 km/h (3 Bft)
24.06.2015 18:05 21,4 C 18,9 C 60 % 0 lf 1020,8 hPa 0,0 l/m 2 min 0 min 489 W/m 16,7 km/h (3 Bft)
24.06.2015 18:06 21,4 C 18,9 C 60 % 0 lf 1020,8 hPa 0,0 l/m 1 min 0 min 500 W/m 16,7 km/h (3 Bft)
24.06.2015 18:08 21,4 C 18,9 C 59 % 0 lf 1020,7 hPa 0,0 l/m 2 min 0 min 494 W/m 16,7 km/h (3 Bft)
24.06.2015 18:10 21,3 C 18,9 C 59 % 0 lf 1020,7 hPa 0,0 l/m 2 min 0 min 485 W/m 10,5 km/h (2 Bft)
24.06.2015 18:12 21,3 C 18,9 C 59 % 0 lf 1020,7 hPa 0,0 l/m 2 min 0 min 465 W/m 12,6 km/h (3 Bft)
24.06.2015 18:14 21,3 C 18,9 C 59 % 0 lf 1020,8 hPa 0,0 l/m 2 min 0 min 419 W/m 10,5 km/h (2 Bft)
24.06.2015 18:16 21,2 C 18,3 C 59 % 0 lf 1020,8 hPa 0,0 l/m 2 min 0 min 391 W/m 12,6 km/h (3 Bft)
24.06.2015 18:18 21,2 C 18,3 C 59 % 0 lf 1020,8 hPa 0,0 l/m 2 min 0 min 438 W/m 14,6 km/h (3 Bft)
24.06.2015 18:20 21,1 C 18,9 C 61 % 0 lf 1020,8 hPa 0,0 l/m 2 min 0 min 461 W/m 10,5 km/h (2 Bft)
24.06.2015 18:22 21,1 C 18,9 C 62 % 0 lf 1020,8 hPa 0,0 l/m 2 min 0 min 418 W/m 16,7 km/h (3 Bft)
24.06.2015 18:24 21,1 C 18,9 C 62 % 0 lf 1020,8 hPa 0,0 l/m 2 min 0 min 362 W/m 12,6 km/h (3 Bft)
24.06.2015 18:26 21,1 C 18,9 C 61 % 0 lf 1020,9 hPa 0,0 l/m 2 min 0 min 387 W/m 12,6 km/h (3 Bft)
24.06.2015 18:28 21,0 C 18,9 C 61 % 0 lf 1020,9 hPa 0,0 l/m 2 min 0 min 409 W/m 14,6 km/h (3 Bft)
24.06.2015 18:30 21,0 C 18,9 C 61 % 0 lf 1020,9 hPa 0,0 l/m 2 min 0 min 333 W/m 12,6 km/h (3 Bft)
24.06.2015 18:32 20,9 C 18,3 C 61 % 0 lf 1020,9 hPa 0,0 l/m 2 min 0 min 226 W/m 12,6 km/h (3 Bft)
24.06.2015 18:34 20,9 C 18,3 C 61 % 0 lf 1020,9 hPa 0,0 l/m 0 min 0 min 208 W/m 10,5 km/h (2 Bft)
24.06.2015 18:36 20,9 C 18,3 C 61 % 0 lf 1020,9 hPa 0,0 l/m 2 min 0 min 242 W/m 10,5 km/h (2 Bft)
24.06.2015 18:38 20,8 C 18,3 C 61 % 0 lf 1020,9 hPa 0,0 l/m 2 min 0 min 294 W/m 12,6 km/h (3 Bft)
24.06.2015 18:40 20,8 C 18,3 C 61 % 0 lf 1020,9 hPa 0,0 l/m 2 min 0 min 238 W/m 12,6 km/h (3 Bft)
24.06.2015 18:42 20,7 C 18,3 C 62 % 0 lf 1020,9 hPa 0,0 l/m 2 min 0 min 219 W/m 14,6 km/h (3 Bft)
24.06.2015 18:44 20,7 C 18,3 C 62 % 0 lf 1020,9 hPa 0,0 l/m 2 min 0 min 244 W/m 12,6 km/h (3 Bft)
24.06.2015 18:46 20,7 C 18,3 C 62 % 0 lf 1020,8 hPa 0,0 l/m 2 min 0 min 263 W/m 10,5 km/h (2 Bft)
24.06.2015 18:48 20,6 C 18,3 C 62 % 0 lf 1020,8 hPa 0,0 l/m 2 min 0 min 284 W/m 10,5 km/h (2 Bft)
24.06.2015 18:50 20,6 C 18,3 C 62 % 0 lf 1020,8 hPa 0,0 l/m 2 min 0 min 284 W/m 8,4 km/h (2 Bft)
24.06.2015 18:52 20,6 C 18,3 C 62 % 0 lf 1020,8 hPa 0,0 l/m 2 min 0 min 266 W/m 10,5 km/h (2 Bft)
24.06.2015 18:54 20,5 C 18,3 C 63 % 0 lf 1020,8 hPa 0,0 l/m 2 min 0 min 240 W/m 6,3 km/h (2 Bft)
24.06.2015 18:56 20,5 C 18,3 C 62 % 0 lf 1020,8 hPa 0,0 l/m 2 min 0 min 254 W/m 10,5 km/h (2 Bft)
24.06.2015 18:58 20,4 C 18,3 C 62 % 0 lf 1020,7 hPa 0,0 l/m 2 min 0 min 308 W/m 10,5 km/h (2 Bft)
24.06.2015 19:00 20,4 C 18,3 C 62 % 0 lf 1020,8 hPa 0,0 l/m 2 min 0 min 304 W/m 18,8 km/h (3 Bft)
24.06.2015 19:02 20,4 C 18,3 C 63 % 0 lf 1020,8 hPa 0,0 l/m 0 min 0 min 189 W/m 18,8 km/h (3 Bft)
24.06.2015 19:04 20,4 C 18,3 C 63 % 0 lf 1020,8 hPa 0,0 l/m 0 min 0 min 181 W/m 8,4 km/h (2 Bft)
24.06.2015 19:06 20,4 C 18,3 C 64 % 0 lf 1020,8 hPa 0,0 l/m 2 min 0 min 186 W/m 12,6 km/h (3 Bft)
24.06.2015 19:08 20,3 C 18,3 C 63 % 0 lf 1020,8 hPa 0,0 l/m 2 min 0 min 215 W/m 14,6 km/h (3 Bft)
24.06.2015 19:10 20,3 C 18,3 C 63 % 0 lf 1020,8 hPa 0,0 l/m 2 min 0 min 209 W/m 10,5 km/h (2 Bft)
24.06.2015 19:12 20,3 C 18,3 C 63 % 0 lf 1020,8 hPa 0,0 l/m 2 min 0 min 225 W/m 8,4 km/h (2 Bft)
24.06.2015 19:14 20,3 C 18,3 C 63 % 0 lf 1020,8 hPa 0,0 l/m 2 min 0 min 243 W/m 10,5 km/h (2 Bft)
24.06.2015 19:16 20,3 C 18,3 C 64 % 0 lf 1020,8 hPa 0,0 l/m 2 min 0 min 245 W/m 14,6 km/h (3 Bft)
24.06.2015 19:18 20,2 C 18,3 C 63 % 0 lf 1020,8 hPa 0,0 l/m 2 min 0 min 242 W/m 12,6 km/h (3 Bft)
24.06.2015 19:20 20,2 C 18,3 C 64 % 0 lf 1020,8 hPa 0,0 l/m 2 min 0 min 272 W/m 12,6 km/h (3 Bft)
24.06.2015 19:22 20,2 C 18,3 C 64 % 0 lf 1020,8 hPa 0,0 l/m 2 min 0 min 217 W/m 10,5 km/h (2 Bft)
24.06.2015 19:24 20,2 C 18,3 C 63 % 0 lf 1020,8 hPa 0,0 l/m 2 min 0 min 204 W/m 10,5 km/h (2 Bft)
24.06.2015 19:26 20,2 C 18,3 C 63 % 0 lf 1020,8 hPa 0,0 l/m 2 min 0 min 172 W/m 14,6 km/h (3 Bft)
24.06.2015 19:28 20,2 C 18,3 C 63 % 0 lf 1020,7 hPa 0,0 l/m 0 min 0 min 156 W/m 12,6 km/h (3 Bft)
24.06.2015 19:30 20,2 C 18,3 C 63 % 0 lf 1020,8 hPa 0,0 l/m 2 min 0 min 162 W/m 10,5 km/h (2 Bft)
24.06.2015 19:32 20,2 C 18,3 C 64 % 0 lf 1020,8 hPa 0,0 l/m 2 min 0 min 171 W/m 12,6 km/h (3 Bft)
24.06.2015 19:34 20,2 C 18,3 C 64 % 0 lf 1020,8 hPa 0,0 l/m 2 min 0 min 168 W/m 8,4 km/h (2 Bft)
24.06.2015 19:36 20,2 C 17,8 C 64 % 0 lf 1020,8 hPa 0,0 l/m 2 min 0 min 156 W/m 10,5 km/h (2 Bft)
24.06.2015 19:38 20,2 C 17,8 C 64 % 0 lf 1020,8 hPa 0,0 l/m 0 min 0 min 146 W/m 8,4 km/h (2 Bft)
24.06.2015 19:40 20,1 C 17,8 C 64 % 0 lf 1020,8 hPa 0,0 l/m 0 min 0 min 141 W/m 10,5 km/h (2 Bft)
24.06.2015 19:42 20,1 C 17,8 C 64 % 0 lf 1020,8 hPa 0,0 l/m 2 min 0 min 149 W/m 8,4 km/h (2 Bft)
24.06.2015 19:44 20,1 C 17,8 C 64 % 0 lf 1020,9 hPa 0,0 l/m 2 min 0 min 160 W/m 8,4 km/h (2 Bft)
24.06.2015 19:46 20,1 C 17,8 C 64 % 0 lf 1020,8 hPa 0,0 l/m 2 min 0 min 177 W/m 10,5 km/h (2 Bft)
24.06.2015 19:48 20,1 C 17,8 C 64 % 0 lf 1020,9 hPa 0,0 l/m 2 min 0 min 207 W/m 8,4 km/h (2 Bft)
24.06.2015 19:50 20,1 C 17,8 C 64 % 0 lf 1020,9 hPa 0,0 l/m 2 min 0 min 206 W/m 10,5 km/h (2 Bft)
24.06.2015 19:52 20,1 C 17,8 C 64 % 0 lf 1020,9 hPa 0,0 l/m 2 min 0 min 198 W/m 12,6 km/h (3 Bft)
24.06.2015 19:54 20,1 C 18,3 C 64 % 0 lf 1021,0 hPa 0,0 l/m 2 min 0 min 204 W/m 10,5 km/h (2 Bft)
24.06.2015 19:56 20,0 C 18,3 C 64 % 0 lf 1020,9 hPa 0,0 l/m 2 min 0 min 196 W/m 14,6 km/h (3 Bft)
24.06.2015 19:58 20,0 C 18,3 C 64 % 0 lf 1020,9 hPa 0,0 l/m 2 min 0 min 187 W/m 10,5 km/h (2 Bft)
24.06.2015 20:00 20,0 C 18,3 C 64 % 0 lf 1021,0 hPa 0,0 l/m 2 min 0 min 189 W/m 12,6 km/h (3 Bft)
24.06.2015 20:02 20,0 C 18,3 C 64 % 0 lf 1020,9 hPa 0,0 l/m 2 min 0 min 186 W/m 10,5 km/h (2 Bft)
24.06.2015 20:04 19,9 C 18,3 C 64 % 0 lf 1021,0 hPa 0,0 l/m 2 min 0 min 178 W/m 12,6 km/h (3 Bft)
24.06.2015 20:06 19,9 C 18,3 C 64 % 0 lf 1021,0 hPa 0,0 l/m 2 min 0 min 169 W/m 12,6 km/h (3 Bft)
24.06.2015 20:08 19,9 C 18,3 C 64 % 0 lf 1021,0 hPa 0,0 l/m 2 min 0 min 171 W/m 12,6 km/h (3 Bft)
24.06.2015 20:10 19,9 C 18,3 C 64 % 0 lf 1021,0 hPa 0,0 l/m 2 min 0 min 164 W/m 14,6 km/h (3 Bft)
24.06.2015 20:12 19,9 C 17,8 C 64 % 0 lf 1021,0 hPa 0,0 l/m 2 min 0 min 155 W/m 16,7 km/h (3 Bft)
24.06.2015 20:14 19,9 C 17,8 C 64 % 0 lf 1021,0 hPa 0,0 l/m 2 min 0 min 146 W/m 10,5 km/h (2 Bft)
24.06.2015 20:16 19,9 C 17,8 C 64 % 0 lf 1021,0 hPa 0,0 l/m 2 min 0 min 135 W/m 10,5 km/h (2 Bft)
24.06.2015 20:18 19,9 C 17,8 C 64 % 0 lf 1021,0 hPa 0,0 l/m 2 min 0 min 124 W/m 10,5 km/h (2 Bft)
24.06.2015 20:20 19,8 C 17,8 C 64 % 0 lf 1021,0 hPa 0,0 l/m 2 min 0 min 107 W/m 10,5 km/h (2 Bft)
24.06.2015 20:22 19,8 C 17,8 C 65 % 0 lf 1021,0 hPa 0,0 l/m 2 min 0 min 99 W/m 10,5 km/h (2 Bft)
24.06.2015 20:24 19,8 C 17,8 C 65 % 0 lf 1021,0 hPa 0,0 l/m 0 min 0 min 83 W/m 12,6 km/h (3 Bft)
24.06.2015 20:26 19,8 C 17,2 C 64 % 0 lf 1020,9 hPa 0,0 l/m 0 min 0 min 69 W/m 14,6 km/h (3 Bft)
24.06.2015 20:28 19,7 C 17,2 C 64 % 0 lf 1021,0 hPa 0,0 l/m 0 min 0 min 69 W/m 10,5 km/h (2 Bft)
24.06.2015 20:30 19,7 C 17,2 C 64 % 0 lf 1021,0 hPa 0,0 l/m 0 min 0 min 73 W/m 12,6 km/h (3 Bft)
24.06.2015 20:32 19,7 C 17,2 C 64 % 0 lf 1021,0 hPa 0,0 l/m 0 min 0 min 66 W/m 6,3 km/h (2 Bft)
24.06.2015 20:34 19,7 C 17,2 C 64 % 0 lf 1021,0 hPa 0,0 l/m 0 min 0 min 69 W/m 6,3 km/h (2 Bft)
24.06.2015 20:36 19,6 C 17,2 C 65 % 0 lf 1021,0 hPa 0,0 l/m 0 min 0 min 64 W/m 6,3 km/h (2 Bft)
24.06.2015 20:38 19,6 C 16,7 C 65 % 0 lf 1021,0 hPa 0,0 l/m 0 min 0 min 63 W/m 8,4 km/h (2 Bft)
24.06.2015 20:40 19,6 C 16,7 C 65 % 0 lf 1021,0 hPa 0,0 l/m 0 min 0 min 67 W/m 6,3 km/h (2 Bft)
24.06.2015 20:42 19,5 C 16,7 C 65 % 0 lf 1021,0 hPa 0,0 l/m 0 min 0 min 66 W/m 8,4 km/h (2 Bft)
24.06.2015 20:44 19,5 C 16,7 C 65 % 0 lf 1021,0 hPa 0,0 l/m 0 min 0 min 64 W/m 8,4 km/h (2 Bft)
24.06.2015 20:46 19,4 C 16,7 C 65 % 0 lf 1021,0 hPa 0,0 l/m 0 min 0 min 64 W/m 6,3 km/h (2 Bft)
24.06.2015 20:48 19,4 C 16,7 C 66 % 0 lf 1021,0 hPa 0,0 l/m 0 min 0 min 61 W/m 4,2 km/h (1 Bft)
24.06.2015 20:50 19,4 C 16,7 C 66 % 0 lf 1021,0 hPa 0,0 l/m 0 min 0 min 53 W/m 4,2 km/h (1 Bft)
24.06.2015 20:52 19,3 C 16,1 C 66 % 0 lf 1021,0 hPa 0,0 l/m 0 min 0 min 46 W/m 6,3 km/h (2 Bft)
24.06.2015 20:54 19,3 C 16,1 C 66 % 0 lf 1021,0 hPa 0,0 l/m 0 min 0 min 40 W/m 6,3 km/h (2 Bft)
24.06.2015 20:56 19,3 C 16,1 C 66 % 0 lf 1021,0 hPa 0,0 l/m 0 min 0 min 38 W/m 6,3 km/h (2 Bft)
24.06.2015 20:58 19,3 C 16,1 C 66 % 0 lf 1021,0 hPa 0,0 l/m 0 min 0 min 34 W/m 8,4 km/h (2 Bft)
24.06.2015 21:00 19,2 C 16,1 C 66 % 0 lf 1021,0 hPa 0,0 l/m 0 min 0 min 31 W/m 6,3 km/h (2 Bft)
24.06.2015 21:02 19,2 C 15,6 C 66 % 0 lf 1021,1 hPa 0,0 l/m 0 min 0 min 28 W/m 6,3 km/h (2 Bft)
24.06.2015 21:04 19,1 C 15,6 C 66 % 0 lf 1021,1 hPa 0,0 l/m 0 min 0 min 25 W/m 8,4 km/h (2 Bft)
24.06.2015 21:06 19,1 C 15,6 C 66 % 0 lf 1021,0 hPa 0,0 l/m 0 min 0 min 24 W/m 8,4 km/h (2 Bft)
24.06.2015 21:08 19,1 C 15,6 C 66 % 0 lf 1021,0 hPa 0,0 l/m 0 min 0 min 22 W/m 6,3 km/h (2 Bft)
24.06.2015 21:10 19,0 C 15,6 C 67 % 0 lf 1021,1 hPa 0,0 l/m 0 min 0 min 21 W/m 6,3 km/h (2 Bft)
24.06.2015 21:12 18,9 C 15,0 C 67 % 0 lf 1021,1 hPa 0,0 l/m 0 min 0 min 20 W/m 6,3 km/h (2 Bft)
24.06.2015 21:14 18,9 C 15,0 C 67 % 0 lf 1021,1 hPa 0,0 l/m 0 min 0 min 19 W/m 8,4 km/h (2 Bft)
24.06.2015 21:16 18,9 C 15,0 C 67 % 0 lf 1021,1 hPa 0,0 l/m 0 min 0 min 19 W/m 6,3 km/h (2 Bft)
24.06.2015 21:18 18,8 C 15,0 C 67 % 0 lf 1021,2 hPa 0,0 l/m 0 min 0 min 18 W/m 4,2 km/h (1 Bft)
24.06.2015 21:20 18,8 C 15,0 C 67 % 0 lf 1021,2 hPa 0,0 l/m 0 min 0 min 18 W/m 4,2 km/h (1 Bft)
24.06.2015 21:22 18,7 C 15,0 C 67 % 0 lf 1021,2 hPa 0,0 l/m 0 min 0 min 18 W/m 4,2 km/h (1 Bft)
24.06.2015 21:24 18,7 C 14,4 C 68 % 0 lf 1021,1 hPa 0,0 l/m 0 min 0 min 16 W/m 6,3 km/h (2 Bft)
24.06.2015 21:26 18,6 C 14,4 C 68 % 0 lf 1021,1 hPa 0,0 l/m 0 min 0 min 16 W/m 4,2 km/h (1 Bft)
24.06.2015 21:28 18,6 C 14,4 C 68 % 0 lf 1021,2 hPa 0,0 l/m 0 min 0 min 15 W/m 6,3 km/h (2 Bft)
24.06.2015 21:30 18,6 C 14,4 C 68 % 0 lf 1021,2 hPa 0,0 l/m 0 min 0 min 14 W/m 6,3 km/h (2 Bft)
24.06.2015 21:32 18,5 C 14,4 C 69 % 0 lf 1021,2 hPa 0,0 l/m 0 min 0 min 13 W/m 6,3 km/h (2 Bft)
24.06.2015 21:34 18,4 C 14,4 C 69 % 0 lf 1021,1 hPa 0,0 l/m 0 min 0 min 12 W/m 6,3 km/h (2 Bft)
24.06.2015 21:36 18,4 C 14,4 C 69 % 0 lf 1021,1 hPa 0,0 l/m 0 min 0 min 11 W/m 6,3 km/h (2 Bft)
24.06.2015 21:38 18,3 C 14,4 C 69 % 0 lf 1021,1 hPa 0,0 l/m 0 min 0 min 11 W/m 4,2 km/h (1 Bft)
24.06.2015 21:40 18,3 C 14,4 C 69 % 0 lf 1021,1 hPa 0,0 l/m 0 min 0 min 11 W/m 4,2 km/h (1 Bft)
24.06.2015 21:42 18,2 C 14,4 C 70 % 0 lf 1021,2 hPa 0,0 l/m 0 min 0 min 9 W/m 4,2 km/h (1 Bft)
24.06.2015 21:44 18,2 C 13,9 C 70 % 0 lf 1021,1 hPa 0,0 l/m 0 min 0 min 9 W/m 2,1 km/h (1 Bft)
24.06.2015 21:46 18,1 C 13,9 C 70 % 0 lf 1021,2 hPa 0,0 l/m 0 min 0 min 8 W/m 2,1 km/h (1 Bft)
24.06.2015 21:48 18,1 C 13,9 C 70 % 0 lf 1021,1 hPa 0,0 l/m 0 min 0 min 7 W/m 2,1 km/h (1 Bft)
24.06.2015 21:50 18,0 C 13,9 C 70 % 0 lf 1021,1 hPa 0,0 l/m 0 min 0 min 6 W/m 4,2 km/h (1 Bft)
24.06.2015 21:52 18,0 C 13,9 C 71 % 0 lf 1021,2 hPa 0,0 l/m 0 min 0 min 5 W/m 2,1 km/h (1 Bft)
24.06.2015 21:54 17,9 C 13,9 C 71 % 0 lf 1021,2 hPa 0,0 l/m 0 min 0 min 5 W/m 4,2 km/h (1 Bft)
24.06.2015 21:56 17,8 C 13,3 C 71 % 0 lf 1021,1 hPa 0,0 l/m 0 min 0 min 5 W/m 4,2 km/h (1 Bft)
24.06.2015 21:58 17,8 C 13,3 C 72 % 0 lf 1021,2 hPa 0,0 l/m 0 min 0 min 3 W/m 4,2 km/h (1 Bft)
24.06.2015 22:00 17,7 C 13,3 C 72 % 0 lf 1021,2 hPa 0,0 l/m 0 min 0 min 0 W/m 4,2 km/h (1 Bft)
24.06.2015 22:02 17,7 C 13,3 C 72 % 0 lf 1021,2 hPa 0,0 l/m 0 min 0 min 0 W/m 4,2 km/h (1 Bft)
24.06.2015 22:04 17,6 C 13,3 C 72 % 0 lf 1021,2 hPa 0,0 l/m 0 min 0 min 0 W/m 4,2 km/h (1 Bft)
24.06.2015 22:06 17,6 C 13,3 C 73 % 0 lf 1021,3 hPa 0,0 l/m 0 min 0 min 0 W/m 4,2 km/h (1 Bft)
24.06.2015 22:08 17,5 C 13,3 C 73 % 0 lf 1021,3 hPa 0,0 l/m 0 min 0 min 0 W/m 6,3 km/h (2 Bft)
24.06.2015 22:10 17,4 C 13,3 C 73 % 0 lf 1021,3 hPa 0,0 l/m 0 min 0 min 0 W/m 4,2 km/h (1 Bft)
24.06.2015 22:12 17,4 C 13,3 C 74 % 0 lf 1021,3 hPa 0,0 l/m 0 min 0 min 0 W/m 4,2 km/h (1 Bft)
24.06.2015 22:14 17,3 C 12,8 C 74 % 0 lf 1021,4 hPa 0,0 l/m 0 min 0 min 0 W/m 4,2 km/h (1 Bft)
24.06.2015 22:16 17,2 C 12,8 C 74 % 0 lf 1021,3 hPa 0,0 l/m 0 min 0 min 0 W/m 6,3 km/h (2 Bft)
24.06.2015 22:18 17,2 C 12,8 C 74 % 0 lf 1021,4 hPa 0,0 l/m 0 min 0 min 0 W/m 6,3 km/h (2 Bft)
24.06.2015 22:20 17,1 C 12,8 C 74 % 0 lf 1021,4 hPa 0,0 l/m 0 min 0 min 0 W/m 4,2 km/h (1 Bft)
24.06.2015 22:22 17,0 C 12,8 C 75 % 0 lf 1021,4 hPa 0,0 l/m 0 min 0 min 0 W/m 4,2 km/h (1 Bft)
24.06.2015 22:24 16,9 C 12,8 C 75 % 0 lf 1021,4 hPa 0,0 l/m 0 min 0 min 0 W/m 4,2 km/h (1 Bft)
24.06.2015 22:26 16,9 C 12,8 C 75 % 0 lf 1021,4 hPa 0,0 l/m 0 min 0 min 0 W/m 4,2 km/h (1 Bft)
24.06.2015 22:28 16,8 C 12,8 C 75 % 0 lf 1021,4 hPa 0,0 l/m 0 min 0 min 0 W/m 4,2 km/h (1 Bft)
24.06.2015 22:30 16,7 C 12,8 C 76 % 0 lf 1021,4 hPa 0,0 l/m 0 min 0 min 0 W/m 4,2 km/h (1 Bft)
24.06.2015 22:32 16,7 C 12,8 C 76 % 0 lf 1021,4 hPa 0,0 l/m 0 min 0 min 0 W/m 4,2 km/h (1 Bft)
24.06.2015 22:34 16,6 C 12,8 C 76 % 0 lf 1021,5 hPa 0,0 l/m 0 min 0 min 0 W/m 4,2 km/h (1 Bft)
24.06.2015 22:36 16,5 C 12,8 C 76 % 0 lf 1021,4 hPa 0,0 l/m 0 min 0 min 0 W/m 6,3 km/h (2 Bft)
24.06.2015 22:38 16,4 C 12,8 C 76 % 0 lf 1021,5 hPa 0,0 l/m 0 min 0 min 0 W/m 4,2 km/h (1 Bft)
24.06.2015 22:40 16,4 C 12,8 C 77 % 0 lf 1021,5 hPa 0,0 l/m 0 min 0 min 0 W/m 6,3 km/h (2 Bft)
24.06.2015 22:42 16,3 C 12,8 C 77 % 0 lf 1021,5 hPa 0,0 l/m 0 min 0 min 0 W/m 2,1 km/h (1 Bft)
24.06.2015 22:44 16,3 C 12,8 C 77 % 0 lf 1021,5 hPa 0,0 l/m 0 min 0 min 0 W/m 4,2 km/h (1 Bft)
24.06.2015 22:46 16,2 C 12,8 C 77 % 0 lf 1021,5 hPa 0,0 l/m 0 min 0 min 0 W/m 4,2 km/h (1 Bft)
24.06.2015 22:48 16,2 C 12,2 C 78 % 0 lf 1021,6 hPa 0,0 l/m 0 min 0 min 0 W/m 4,2 km/h (1 Bft)
24.06.2015 22:50 16,1 C 12,2 C 78 % 0 lf 1021,6 hPa 0,0 l/m 0 min 0 min 0 W/m 4,2 km/h (1 Bft)
24.06.2015 22:52 16,1 C 12,2 C 78 % 0 lf 1021,6 hPa 0,0 l/m 0 min 0 min 0 W/m 4,2 km/h (1 Bft)
24.06.2015 22:54 16,0 C 12,2 C 78 % 0 lf 1021,6 hPa 0,0 l/m 0 min 0 min 0 W/m 4,2 km/h (1 Bft)
24.06.2015 22:56 15,9 C 12,2 C 79 % 0 lf 1021,6 hPa 0,0 l/m 0 min 0 min 0 W/m 6,3 km/h (2 Bft)
24.06.2015 22:58 15,9 C 12,2 C 79 % 0 lf 1021,6 hPa 0,0 l/m 0 min 0 min 0 W/m 4,2 km/h (1 Bft)
24.06.2015 23:00 15,8 C 12,2 C 79 % 0 lf 1021,6 hPa 0,0 l/m 0 min 0 min 0 W/m 6,3 km/h (2 Bft)
24.06.2015 23:02 15,8 C 12,2 C 80 % 0 lf 1021,5 hPa 0,0 l/m 0 min 0 min 0 W/m 6,3 km/h (2 Bft)
24.06.2015 23:04 15,7 C 12,2 C 80 % 0 lf 1021,6 hPa 0,0 l/m 0 min 0 min 0 W/m 6,3 km/h (2 Bft)
24.06.2015 23:06 15,7 C 12,2 C 80 % 0 lf 1021,5 hPa 0,0 l/m 0 min 0 min 0 W/m 6,3 km/h (2 Bft)
24.06.2015 23:08 15,6 C 12,2 C 80 % 0 lf 1021,6 hPa 0,0 l/m 0 min 0 min 0 W/m 6,3 km/h (2 Bft)
24.06.2015 23:10 15,6 C 12,2 C 80 % 0 lf 1021,6 hPa 0,0 l/m 0 min 0 min 0 W/m 6,3 km/h (2 Bft)
24.06.2015 23:12 15,5 C 12,2 C 80 % 0 lf 1021,5 hPa 0,0 l/m 0 min 0 min 0 W/m 8,4 km/h (2 Bft)
24.06.2015 23:14 15,4 C 12,2 C 80 % 0 lf 1021,5 hPa 0,0 l/m 0 min 0 min 0 W/m 6,3 km/h (2 Bft)
24.06.2015 23:16 15,4 C 12,2 C 81 % 0 lf 1021,5 hPa 0,0 l/m 0 min 0 min 0 W/m 8,4 km/h (2 Bft)
24.06.2015 23:18 15,4 C 12,2 C 81 % 0 lf 1021,5 hPa 0,0 l/m 0 min 0 min 0 W/m 6,3 km/h (2 Bft)
24.06.2015 23:20 15,3 C 11,7 C 81 % 0 lf 1021,6 hPa 0,0 l/m 0 min 0 min 0 W/m 4,2 km/h (1 Bft)
24.06.2015 23:22 15,3 C 11,7 C 81 % 0 lf 1021,6 hPa 0,0 l/m 0 min 0 min 0 W/m 6,3 km/h (2 Bft)
24.06.2015 23:24 15,2 C 11,7 C 82 % 0 lf 1021,6 hPa 0,0 l/m 0 min 0 min 0 W/m 6,3 km/h (2 Bft)
24.06.2015 23:26 15,2 C 11,7 C 81 % 0 lf 1021,6 hPa 0,0 l/m 0 min 0 min 0 W/m 6,3 km/h (2 Bft)
24.06.2015 23:28 15,1 C 11,7 C 82 % 0 lf 1021,5 hPa 0,0 l/m 0 min 0 min 0 W/m 6,3 km/h (2 Bft)
24.06.2015 23:30 15,1 C 11,7 C 82 % 0 lf 1021,6 hPa 0,0 l/m 0 min 0 min 0 W/m 6,3 km/h (2 Bft)
24.06.2015 23:32 15,1 C 11,7 C 82 % 0 lf 1021,6 hPa 0,0 l/m 0 min 0 min 0 W/m 8,4 km/h (2 Bft)
24.06.2015 23:34 15,0 C 11,7 C 82 % 0 lf 1021,6 hPa 0,0 l/m 0 min 0 min 0 W/m 4,2 km/h (1 Bft)
24.06.2015 23:36 14,9 C 11,7 C 82 % 0 lf 1021,5 hPa 0,0 l/m 0 min 0 min 0 W/m 6,3 km/h (2 Bft)
24.06.2015 23:38 14,9 C 11,7 C 83 % 0 lf 1021,5 hPa 0,0 l/m 0 min 0 min 0 W/m 6,3 km/h (2 Bft)
24.06.2015 23:40 14,9 C 11,7 C 83 % 0 lf 1021,6 hPa 0,0 l/m 0 min 0 min 0 W/m 6,3 km/h (2 Bft)
24.06.2015 23:42 14,8 C 11,7 C 83 % 0 lf 1021,6 hPa 0,0 l/m 0 min 0 min 0 W/m 6,3 km/h (2 Bft)
24.06.2015 23:44 14,8 C 11,7 C 83 % 0 lf 1021,6 hPa 0,0 l/m 0 min 0 min 0 W/m 6,3 km/h (2 Bft)
24.06.2015 23:46 14,7 C 11,7 C 83 % 0 lf 1021,5 hPa 0,0 l/m 0 min 0 min 0 W/m 6,3 km/h (2 Bft)
24.06.2015 23:48 14,7 C 11,7 C 83 % 0 lf 1021,5 hPa 0,0 l/m 0 min 0 min 0 W/m 6,3 km/h (2 Bft)
24.06.2015 23:50 14,7 C 11,7 C 83 % 0 lf 1021,5 hPa 0,0 l/m 0 min 0 min 0 W/m 6,3 km/h (2 Bft)
24.06.2015 23:52 14,7 C 11,7 C 84 % 0 lf 1021,6 hPa 0,0 l/m 0 min 0 min 0 W/m 6,3 km/h (2 Bft)
24.06.2015 23:54 14,6 C 11,7 C 84 % 0 lf 1021,5 hPa 0,0 l/m 0 min 0 min 0 W/m 6,3 km/h (2 Bft)
24.06.2015 23:56 14,6 C 11,7 C 84 % 0 lf 1021,5 hPa 0,0 l/m 0 min 0 min 0 W/m 6,3 km/h (2 Bft)
24.06.2015 23:58 14,6 C 11,7 C 84 % 0 lf 1021,5 hPa 0,0 l/m 0 min 0 min 0 W/m 4,2 km/h (1 Bft)
_ Min-Zeit 04:10 00:00 17:02 00:12 00:00 - - - - 05:06
Minimum _ 11,4 C 10,6 C 58 % 0 lf 1018,8 hPa - - - - 2,1 km/h (1 Bft)
_ Max-Zeit 16:58 16:14 02:58 00:00 12:08 02:36 12:46 01:52 14:54 15:40
Maximum _ 21,8 C 21,1 C 95 % 4 lf 1022,2 hPa 0,2 l/m 2 min 2 min 1093 W/m 23,0 km/h
W-SW (4 Bft)
Durchschnitt _ 15,4 C 14,0 C 80 % 0 lf 1021,0 hPa #0,2 l/m #6:07 h #2 min. 278 W/m 9,9 km/h (2 Bft)
© 2015 W. Hausmann